Vuilleumier, Laurent (2008): Radiosonde measurements from station Payerne (2008-01) [dataset]. Swiss Meteorological Agency, Payerne, PANGAEA, https://doi.org/10.1594/PANGAEA.707738
Always quote citation above when using data! You can download the citation in several formats below.
Published: 2008-11-19 • DOI registered: 2008-12-17
Other version:
Vuilleumier, Laurent (2008): BSRN Station-to-archive file for station Payerne (2008-01) [dataset]. ftp://ftp.bsrn.awi.de/pay/pay0108.dat.gz
Project(s):
Coverage:
Latitude: 46.812300 * Longitude: 6.942200
Date/Time Start: 2008-01-01T00:00:00 * Date/Time End: 2008-01-31T12:00:00
Minimum ALTITUDE: 491 m * Maximum ALTITUDE: 35372 m
Event(s):
PAY (Payerne) * Latitude: 46.812300 * Longitude: 6.942200 * Date/Time: 1992-09-01T00:00:00 * Elevation: 491.0 m * Location: Switzerland * Method/Device: Monitoring station (MONS) * Comment: BSRN station no: 21; Surface type: cultivated; Topography type: hilly, rural; Horizon: doi:10.1594/PANGAEA.947035; Station scientist: Laurent Vuilleumier (laurent.vuilleumier@meteoswiss.ch)
Comment:
Location: Arosa, Switzerland; Distance from radiation site: 200 km
Parameter(s):
| # | Name | Short Name | Unit | Principal Investigator | Method/Device | Comment |
|---|---|---|---|---|---|---|
| 1 | DATE/TIME | Date/Time | Geocode | |||
| 2 | ALTITUDE | Altitude | m | Geocode | ||
| 3 | Pressure, at given altitude | PPPP | hPa | Vuilleumier, Laurent | Radiosonde, METEOLABOR AG, SRSCH | |
| 4 | Temperature, air | TTT | °C | Vuilleumier, Laurent | Radiosonde, METEOLABOR AG, SRSCH | |
| 5 | Dew/frost point | TdTdTd | °C | Vuilleumier, Laurent | Radiosonde, METEOLABOR AG, SRSCH | |
| 6 | Wind direction | dd | deg | Vuilleumier, Laurent | Radiosonde, METEOLABOR AG, SRSCH | |
| 7 | Wind speed | ff | m/s | Vuilleumier, Laurent | Radiosonde, METEOLABOR AG, SRSCH | |
| 8 | Ozone, partial pressure | pO3 | mPa | Vuilleumier, Laurent | Radiosonde, METEOLABOR AG, SRSCH |
License:
Size:
321881 data points
Data
| 1 Date/Time | 2 Altitude [m] | 3 PPPP [hPa] | 4 TTT [°C] | 5 TdTdTd [°C] | 6 dd [deg] | 7 ff [m/s] | 8 pO3 [mPa] |
|---|---|---|---|---|---|---|---|
| 2008-01-01T00:00 | 491 | 968 | -0.8 | -2.5 | 49 | 2 | |
| 2008-01-01T00:00 | 501 | 966 | -0.4 | -2.2 | |||
| 2008-01-01T00:00 | 510 | 965 | -0.4 | -2.3 | |||
| 2008-01-01T00:00 | 515 | 965 | -0.5 | -2.5 | |||
| 2008-01-01T00:00 | 529 | 963 | -0.4 | -2.4 | |||
| 2008-01-01T00:00 | 530 | 963 | -0.4 | -2.4 | |||
| 2008-01-01T00:00 | 531 | 963 | -0.4 | -2.4 | 41 | 4 | |
| 2008-01-01T00:00 | 532 | 963 | -0.4 | -2.4 | |||
| 2008-01-01T00:00 | 533 | 962 | -0.4 | -2.4 | |||
| 2008-01-01T00:00 | 534 | 962 | -0.5 | -2.4 | |||
| 2008-01-01T00:00 | 543 | 961 | -0.5 | -2.4 | 40 | 4 | |
| 2008-01-01T00:00 | 545 | 961 | -0.5 | -2.4 | |||
| 2008-01-01T00:00 | 556 | 960 | -0.4 | -2.2 | |||
| 2008-01-01T00:00 | 561 | 959 | -0.6 | -2.4 | |||
| 2008-01-01T00:00 | 587 | 956 | -0.3 | -2.1 | |||
| 2008-01-01T00:00 | 593 | 955 | -0.3 | -2.1 | 46 | 4 | |
| 2008-01-01T00:00 | 598 | 955 | -0.3 | -2.0 | |||
| 2008-01-01T00:00 | 604 | 954 | -0.2 | -2.0 | |||
| 2008-01-01T00:00 | 624 | 952 | 0.1 | -1.9 | |||
| 2008-01-01T00:00 | 634 | 950 | 0.2 | -2.0 | |||
| 2008-01-01T00:00 | 638 | 950 | 0.2 | -2.2 | |||
| 2008-01-01T00:00 | 643 | 949 | 0.2 | -2.2 | 51 | 5 | |
| 2008-01-01T00:00 | 662 | 947 | 0.3 | -2.5 | |||
| 2008-01-01T00:00 | 671 | 946 | 0.4 | -2.6 | |||
| 2008-01-01T00:00 | 676 | 945 | 0.3 | -2.7 | |||
| 2008-01-01T00:00 | 691 | 944 | 0.2 | -3.0 | 53 | 6 | |
| 2008-01-01T00:00 | 701 | 942 | 0.2 | -3.2 | |||
| 2008-01-01T00:00 | 713 | 941 | 0.1 | -3.4 | |||
| 2008-01-01T00:00 | 719 | 940 | 0.1 | -3.5 | |||
| 2008-01-01T00:00 | 739 | 938 | 0.2 | -3.5 | |||
| 2008-01-01T00:00 | 743 | 937 | 0.2 | -3.6 | 54 | 7 | |
| 2008-01-01T00:00 | 752 | 936 | 0.1 | -3.8 | |||
| 2008-01-01T00:00 | 756 | 936 | -0.1 | -4.0 | |||
| 2008-01-01T00:00 | 775 | 934 | -0.2 | -4.2 | |||
| 2008-01-01T00:00 | 786 | 932 | 0.1 | -4.0 | |||
| 2008-01-01T00:00 | 792 | 932 | 0.0 | -4.2 | 55 | 8 | |
| 2008-01-01T00:00 | 817 | 929 | 0.0 | -4.5 | |||
| 2008-01-01T00:00 | 826 | 928 | -0.1 | -4.6 | |||
| 2008-01-01T00:00 | 831 | 927 | -0.1 | -4.7 | |||
| 2008-01-01T00:00 | 839 | 926 | -0.2 | -4.9 | 55 | 9 | |
| 2008-01-01T00:00 | 851 | 925 | -0.2 | -5.2 | |||
| 2008-01-01T00:00 | 853 | 925 | -0.2 | -5.2 | |||
| 2008-01-01T00:00 | 861 | 924 | -0.2 | -5.4 | |||
| 2008-01-01T00:00 | 865 | 923 | -0.3 | -5.6 | |||
| 2008-01-01T00:00 | 884 | 921 | -0.4 | -5.9 | 56 | 9 | |
| 2008-01-01T00:00 | 889 | 921 | -0.4 | -6.0 | |||
| 2008-01-01T00:00 | 900 | 919 | -0.4 | -6.2 | |||
| 2008-01-01T00:00 | 905 | 919 | -0.5 | -6.3 | |||
| 2008-01-01T00:00 | 923 | 917 | -0.7 | -6.4 | |||
| 2008-01-01T00:00 | 931 | 916 | -0.7 | -6.5 | 55 | 10 | |
| 2008-01-01T00:00 | 934 | 915 | -0.7 | -6.5 | |||
| 2008-01-01T00:00 | 938 | 915 | -0.8 | -6.6 | |||
| 2008-01-01T00:00 | 955 | 913 | -1.0 | -6.7 | |||
| 2008-01-01T00:00 | 969 | 911 | -1.0 | -6.8 | |||
| 2008-01-01T00:00 | 974 | 911 | -1.1 | -6.9 | 56 | 10 | |
| 2008-01-01T00:00 | 991 | 909 | -1.3 | -6.9 | |||
| 2008-01-01T00:00 | 998 | 908 | -1.3 | -6.9 | |||
| 2008-01-01T00:00 | 1002 | 908 | -1.4 | -7.0 | |||
| 2008-01-01T00:00 | 1014 | 906 | -1.5 | -7.0 | 56 | 10 | |
| 2008-01-01T00:00 | 1022 | 905 | -1.5 | -7.0 | |||
| 2008-01-01T00:00 | 1030 | 904 | -1.5 | -7.1 | |||
| 2008-01-01T00:00 | 1034 | 904 | -1.6 | -7.2 | |||
| 2008-01-01T00:00 | 1055 | 902 | -1.8 | -7.3 | 56 | 11 | |
| 2008-01-01T00:00 | 1062 | 901 | -1.8 | -7.4 | |||
| 2008-01-01T00:00 | 1065 | 900 | -1.9 | -7.5 | |||
| 2008-01-01T00:00 | 1069 | 900 | -1.9 | -7.6 | |||
| 2008-01-01T00:00 | 1085 | 898 | -2.0 | -7.7 | |||
| 2008-01-01T00:00 | 1094 | 897 | -2.0 | -7.8 | 57 | 11 | |
| 2008-01-01T00:00 | 1099 | 897 | -2.1 | -7.9 | |||
| 2008-01-01T00:00 | 1119 | 894 | -2.1 | -8.1 | |||
| 2008-01-01T00:00 | 1127 | 894 | -2.1 | -8.1 | |||
| 2008-01-01T00:00 | 1131 | 893 | -2.2 | -8.2 | |||
| 2008-01-01T00:00 | 1135 | 893 | -2.2 | -8.3 | 58 | 11 | |
| 2008-01-01T00:00 | 1153 | 891 | -2.3 | -8.5 | |||
| 2008-01-01T00:00 | 1165 | 889 | -2.2 | -8.6 | |||
| 2008-01-01T00:00 | 1171 | 889 | -2.3 | -8.7 | |||
| 2008-01-01T00:00 | 1186 | 887 | -2.4 | -8.8 | 58 | 11 | |
| 2008-01-01T00:00 | 1195 | 886 | -2.5 | -8.8 | |||
| 2008-01-01T00:00 | 1202 | 885 | -2.5 | -8.7 | |||
| 2008-01-01T00:00 | 1205 | 885 | -2.5 | -8.7 | |||
| 2008-01-01T00:00 | 1226 | 882 | -2.4 | -8.9 | 59 | 10 | |
| 2008-01-01T00:00 | 1237 | 881 | -2.2 | -8.8 | |||
| 2008-01-01T00:00 | 1242 | 881 | -2.3 | -8.9 | |||
| 2008-01-01T00:00 | 1262 | 878 | -2.2 | -9.1 | |||
| 2008-01-01T00:00 | 1270 | 878 | -2.2 | -9.3 | |||
| 2008-01-01T00:00 | 1274 | 877 | -2.3 | -9.4 | 59 | 10 | |
| 2008-01-01T00:00 | 1295 | 875 | -2.4 | -9.5 | |||
| 2008-01-01T00:00 | 1303 | 874 | -2.4 | -9.5 | |||
| 2008-01-01T00:00 | 1307 | 873 | -2.5 | -9.6 | |||
| 2008-01-01T00:00 | 1315 | 873 | -2.6 | -9.6 | 59 | 10 | |
| 2008-01-01T00:00 | 1326 | 871 | -2.7 | -9.7 | |||
| 2008-01-01T00:00 | 1332 | 871 | -2.7 | -9.7 | |||
| 2008-01-01T00:00 | 1336 | 870 | -2.8 | -9.8 | |||
| 2008-01-01T00:00 | 1352 | 868 | -2.9 | -9.9 | 58 | 10 | |
| 2008-01-01T00:00 | 1357 | 868 | -3.0 | -9.9 | |||
| 2008-01-01T00:00 | 1368 | 867 | -3.0 | -10.0 | |||
| 2008-01-01T00:00 | 1374 | 866 | -3.1 | -10.1 | |||
| 2008-01-01T00:00 | 1399 | 863 | -3.3 | -10.1 | |||
| 2008-01-01T00:00 | 1403 | 863 | -3.3 | -10.1 | 58 | 10 | |
| 2008-01-01T00:00 | 1406 | 863 | -3.4 | -10.1 | |||
| 2008-01-01T00:00 | 1410 | 862 | -3.5 | -10.2 | |||
| 2008-01-01T00:00 | 1431 | 860 | -3.7 | -10.3 | |||
| 2008-01-01T00:00 | 1439 | 859 | -3.7 | -10.3 | |||
| 2008-01-01T00:00 | 1444 | 858 | -3.8 | -10.4 | 57 | 11 | |
| 2008-01-01T00:00 | 1467 | 856 | -4.0 | -10.4 | |||
| 2008-01-01T00:00 | 1477 | 855 | -4.1 | -10.5 | |||
| 2008-01-01T00:00 | 1482 | 854 | -4.2 | -10.5 | |||
| 2008-01-01T00:00 | 1492 | 853 | -4.2 | -10.5 | 56 | 11 | |
| 2008-01-01T00:00 | 1506 | 852 | -4.3 | -10.6 | |||
| 2008-01-01T00:00 | 1515 | 851 | -4.4 | -10.6 | |||
| 2008-01-01T00:00 | 1519 | 850 | -4.5 | -10.7 | |||
| 2008-01-01T00:00 | 1522 | 850 | -4.5 | -10.7 | |||
| 2008-01-01T00:00 | 1536 | 848 | -4.7 | -10.7 | 56 | 11 | |
| 2008-01-01T00:00 | 1540 | 848 | -4.7 | -10.7 | |||
| 2008-01-01T00:00 | 1548 | 847 | -4.7 | -10.7 | |||
| 2008-01-01T00:00 | 1552 | 847 | -4.8 | -10.8 | |||
| 2008-01-01T00:00 | 1574 | 844 | -5.0 | -10.9 | |||
| 2008-01-01T00:00 | 1580 | 844 | -5.0 | -10.9 | 56 | 10 | |
| 2008-01-01T00:00 | 1585 | 843 | -5.1 | -10.9 | |||
| 2008-01-01T00:00 | 1590 | 843 | -5.2 | -11.0 | |||
| 2008-01-01T00:00 | 1614 | 840 | -5.3 | -11.1 | |||
| 2008-01-01T00:00 | 1622 | 839 | -5.3 | -11.0 | |||
| 2008-01-01T00:00 | 1626 | 839 | -5.5 | -11.1 | 56 | 10 | |
| 2008-01-01T00:00 | 1645 | 837 | -5.6 | -11.1 | |||
| 2008-01-01T00:00 | 1653 | 836 | -5.6 | -11.1 | |||
| 2008-01-01T00:00 | 1656 | 836 | -5.7 | -11.1 | |||
| 2008-01-01T00:00 | 1664 | 835 | -5.8 | -11.1 | 56 | 9 | |
| 2008-01-01T00:00 | 1675 | 834 | -5.8 | -11.0 | |||
| 2008-01-01T00:00 | 1682 | 833 | -5.9 | -11.0 | |||
| 2008-01-01T00:00 | 1686 | 832 | -5.9 | -11.0 | |||
| 2008-01-01T00:00 | 1704 | 831 | -6.0 | -10.9 | 57 | 9 | |
| 2008-01-01T00:00 | 1720 | 829 | -6.1 | -10.8 | |||
| 2008-01-01T00:00 | 1725 | 828 | -6.2 | -10.9 | |||
| 2008-01-01T00:00 | 1746 | 826 | -6.2 | -10.8 | |||
| 2008-01-01T00:00 | 1757 | 825 | -6.1 | -10.7 | 58 | 8 | |
| 2008-01-01T00:00 | 1762 | 824 | -6.1 | -10.7 | |||
| 2008-01-01T00:00 | 1767 | 824 | -6.2 | -10.8 | |||
| 2008-01-01T00:00 | 1785 | 822 | -6.1 | -10.9 | |||
| 2008-01-01T00:00 | 1792 | 821 | -5.9 | -10.9 | |||
| 2008-01-01T00:00 | 1795 | 821 | -6.0 | -11.1 | |||
| 2008-01-01T00:00 | 1799 | 820 | -6.0 | -11.1 | 58 | 7 | |
| 2008-01-01T00:00 | 1816 | 819 | -5.8 | -11.4 | |||
| 2008-01-01T00:00 | 1827 | 818 | -5.7 | -11.6 | |||
| 2008-01-01T00:00 | 1833 | 817 | -5.7 | -11.8 | |||
| 2008-01-01T00:00 | 1847 | 816 | -5.6 | -12.1 | 57 | 6 | |
| 2008-01-01T00:00 | 1856 | 815 | -5.6 | -12.3 | |||
| 2008-01-01T00:00 | 1862 | 814 | -5.5 | -12.5 | |||
| 2008-01-01T00:00 | 1865 | 814 | -5.5 | -12.7 | |||
| 2008-01-01T00:00 | 1885 | 812 | -5.1 | -13.1 | 53 | 5 | |
| 2008-01-01T00:00 | 1896 | 810 | -5.0 | -13.2 | |||
| 2008-01-01T00:00 | 1902 | 810 | -5.0 | -13.4 | |||
| 2008-01-01T00:00 | 1929 | 807 | -5.0 | -14.2 | |||
| 2008-01-01T00:00 | 1940 | 806 | -4.9 | -14.5 | 47 | 3 | |
| 2008-01-01T00:00 | 1946 | 805 | -5.0 | -14.8 | |||
| 2008-01-01T00:00 | 1975 | 802 | -4.8 | -15.6 | |||
| 2008-01-01T00:00 | 1988 | 801 | -4.2 | -15.5 | |||
| 2008-01-01T00:00 | 1994 | 800 | -4.1 | -15.7 | |||
| 2008-01-01T00:00 | 1998 | 800 | -3.9 | -15.7 | |||
| 2008-01-01T00:00 | 2000 | 800 | -3.8 | -15.8 | 37 | 2 | |
| 2008-01-01T00:00 | 2020 | 798 | -2.5 | -16.1 | |||
| 2008-01-01T00:00 | 2030 | 797 | -2.2 | -17.2 | |||
| 2008-01-01T00:00 | 2033 | 796 | -2.3 | -17.7 | |||
| 2008-01-01T00:00 | 2041 | 796 | -2.4 | -18.0 | 25 | 2 | |
| 2008-01-01T00:00 | 2053 | 794 | -2.5 | -18.4 | |||
| 2008-01-01T00:00 | 2065 | 793 | -2.5 | -18.5 | |||
| 2008-01-01T00:00 | 2070 | 793 | -2.6 | -18.6 | |||
| 2008-01-01T00:00 | 2091 | 791 | -2.6 | -18.8 | 19 | 2 | |
| 2008-01-01T00:00 | 2096 | 790 | -2.6 | -18.8 | |||
| 2008-01-01T00:00 | 2105 | 789 | -2.7 | -18.9 | |||
| 2008-01-01T00:00 | 2110 | 789 | -2.8 | -19.0 | |||
| 2008-01-01T00:00 | 2132 | 787 | -2.9 | -19.3 | |||
| 2008-01-01T00:00 | 2137 | 786 | -2.9 | -19.4 | 22 | 2 | |
| 2008-01-01T00:00 | 2141 | 786 | -3.0 | -19.4 | |||
| 2008-01-01T00:00 | 2146 | 785 | -3.0 | -19.6 | |||
| 2008-01-01T00:00 | 2166 | 783 | -3.2 | -19.9 | |||
| 2008-01-01T00:00 | 2173 | 782 | -3.2 | -19.9 | |||
| 2008-01-01T00:00 | 2177 | 782 | -3.3 | -20.0 | 28 | 2 | |
| 2008-01-01T00:00 | 2197 | 780 | -3.4 | -20.2 | |||
| 2008-01-01T00:00 | 2207 | 779 | -3.2 | -20.2 | |||
| 2008-01-01T00:00 | 2212 | 779 | -3.3 | -20.3 | |||
| 2008-01-01T00:00 | 2220 | 778 | -3.4 | -20.4 | 31 | 3 | |
| 2008-01-01T00:00 | 2233 | 777 | -3.5 | -20.5 | |||
| 2008-01-01T00:00 | 2239 | 776 | -3.5 | -20.6 | |||
| 2008-01-01T00:00 | 2243 | 776 | -3.6 | -20.7 | |||
| 2008-01-01T00:00 | 2259 | 774 | -3.5 | -20.7 | 30 | 3 | |
| 2008-01-01T00:00 | 2263 | 774 | -3.5 | -20.7 | |||
| 2008-01-01T00:00 | 2273 | 773 | -3.5 | -20.7 | |||
| 2008-01-01T00:00 | 2278 | 772 | -3.6 | -20.8 | |||
| 2008-01-01T00:00 | 2300 | 770 | -3.7 | -21.0 | |||
| 2008-01-01T00:00 | 2303 | 770 | -3.7 | -20.9 | 28 | 3 | |
| 2008-01-01T00:00 | 2309 | 769 | -3.7 | -20.9 | |||
| 2008-01-01T00:00 | 2312 | 769 | -3.8 | -21.0 | |||
| 2008-01-01T00:00 | 2332 | 767 | -3.8 | -21.1 | |||
| 2008-01-01T00:00 | 2343 | 766 | -3.8 | -21.1 | 23 | 3 | |
| 2008-01-01T00:00 | 2348 | 765 | -3.9 | -21.2 | |||
| 2008-01-01T00:00 | 2372 | 763 | -4.0 | -21.3 | |||
| 2008-01-01T00:00 | 2381 | 762 | -4.1 | -21.3 | |||
| 2008-01-01T00:00 | 2385 | 762 | -4.1 | -21.4 | |||
| 2008-01-01T00:00 | 2389 | 761 | -4.2 | -21.4 | 18 | 3 | |
| 2008-01-01T00:00 | 2407 | 760 | -4.2 | -21.4 | |||
| 2008-01-01T00:00 | 2417 | 759 | -4.1 | -21.4 | |||
| 2008-01-01T00:00 | 2422 | 758 | -4.2 | -21.5 | |||
| 2008-01-01T00:00 | 2435 | 757 | -4.3 | -21.5 | 12 | 4 | |
| 2008-01-01T00:00 | 2444 | 756 | -4.4 | -21.6 | |||
| 2008-01-01T00:00 | 2451 | 755 | -4.4 | -21.6 | |||
| 2008-01-01T00:00 | 2455 | 755 | -4.5 | -21.6 | |||
| 2008-01-01T00:00 | 2475 | 753 | -4.6 | -21.7 | 9 | 4 | |
| 2008-01-01T00:00 | 2483 | 752 | -4.6 | -21.8 | |||
| 2008-01-01T00:00 | 2487 | 752 | -4.7 | -21.8 | |||
| 2008-01-01T00:00 | 2508 | 750 | -4.8 | -21.9 | |||
| 2008-01-01T00:00 | 2516 | 749 | -4.8 | -21.9 | 6 | 5 | |
| 2008-01-01T00:00 | 2520 | 749 | -4.9 | -21.9 | |||
| 2008-01-01T00:00 | 2542 | 747 | -4.8 | -21.8 | |||
| 2008-01-01T00:00 | 2556 | 745 | -4.8 | -21.7 | |||
| 2008-01-01T00:00 | 2561 | 745 | -4.7 | -21.6 | 4 | 7 | |
| 2008-01-01T00:00 | 2584 | 743 | -4.3 | -21.2 | |||
| 2008-01-01T00:00 | 2593 | 742 | -4.2 | -21.2 | |||
| 2008-01-01T00:00 | 2598 | 741 | -4.3 | -21.2 | |||
| 2008-01-01T00:00 | 2607 | 741 | -4.3 | -21.3 | 2 | 8 | |
| 2008-01-01T00:00 | 2620 | 739 | -4.3 | -21.4 | |||
| 2008-01-01T00:00 | 2630 | 738 | -4.1 | -21.2 | |||
| 2008-01-01T00:00 | 2634 | 738 | -4.1 | -21.2 | |||
| 2008-01-01T00:00 | 2652 | 736 | -4.2 | -21.2 | 1 | 9 | |
| 2008-01-01T00:00 | 2656 | 736 | -4.2 | -21.3 | |||
| 2008-01-01T00:00 | 2664 | 735 | -4.1 | -21.2 | |||
| 2008-01-01T00:00 | 2668 | 735 | -4.2 | -21.3 | |||
| 2008-01-01T00:00 | 2689 | 733 | -4.2 | -21.3 | |||
| 2008-01-01T00:00 | 2694 | 732 | -4.1 | -21.3 | 0 | 9 | |
| 2008-01-01T00:00 | 2699 | 732 | -4.1 | -21.3 | |||
| 2008-01-01T00:00 | 2703 | 732 | -4.2 | -21.4 | |||
| 2008-01-01T00:00 | 2726 | 729 | -4.3 | -21.5 | |||
| 2008-01-01T00:00 | 2734 | 729 | -4.3 | -21.5 | |||
| 2008-01-01T00:00 | 2739 | 728 | -4.3 | -21.5 | 359 | 9 | |
| 2008-01-01T00:00 | 2758 | 727 | -4.3 | -21.5 | |||
| 2008-01-01T00:00 | 2764 | 726 | -4.3 | -21.5 | |||
| 2008-01-01T00:00 | 2767 | 726 | -4.4 | -21.5 | |||
| 2008-01-01T00:00 | 2775 | 725 | -4.4 | -21.6 | 359 | 9 | |
| 2008-01-01T00:00 | 2787 | 724 | -4.5 | -21.7 | |||
| 2008-01-01T00:00 | 2798 | 723 | -4.6 | -21.8 | |||
| 2008-01-01T00:00 | 2804 | 722 | -4.6 | -21.8 | |||
| 2008-01-01T00:00 | 2823 | 721 | -4.8 | -21.9 | 358 | 9 | |
| 2008-01-01T00:00 | 2827 | 720 | -4.8 | -22.0 | |||
| 2008-01-01T00:00 | 2837 | 719 | -4.8 | -22.0 | |||
| 2008-01-01T00:00 | 2841 | 719 | -4.9 | -22.1 | |||
| 2008-01-01T00:00 | 2861 | 717 | -5.1 | -22.2 | 357 | 9 | |
| 2008-01-01T00:00 | 2872 | 716 | -5.1 | -22.2 | |||
| 2008-01-01T00:00 | 2877 | 716 | -5.1 | -22.2 | |||
| 2008-01-01T00:00 | 2898 | 714 | -5.3 | -22.4 | |||
| 2008-01-01T00:00 | 2904 | 713 | -5.3 | -22.4 | 355 | 9 | |
| 2008-01-01T00:00 | 2907 | 713 | -5.4 | -22.5 | |||
| 2008-01-01T00:00 | 2924 | 711 | -5.5 | -22.6 | |||
| 2008-01-01T00:00 | 2932 | 711 | -5.5 | -22.6 | |||
| 2008-01-01T00:00 | 2936 | 710 | -5.6 | -22.6 | |||
| 2008-01-01T00:00 | 2941 | 710 | -5.6 | -22.6 | 355 | 10 | |
| 2008-01-01T00:00 | 2959 | 708 | -5.6 | -22.7 | |||
| 2008-01-01T00:00 | 2969 | 707 | -5.5 | -22.5 | |||
| 2008-01-01T00:00 | 2974 | 707 | -5.5 | -22.6 | |||
| 2008-01-01T00:00 | 2989 | 705 | -5.6 | -22.6 | 355 | 10 | |
| 2008-01-01T00:00 | 2999 | 705 | -5.6 | -22.7 | |||
| 2008-01-01T00:00 | 3008 | 704 | -5.6 | -22.7 | |||
| 2008-01-01T00:00 | 3013 | 703 | -5.7 | -22.8 | |||
| 2008-01-01T00:00 | 3035 | 701 | -5.8 | -22.7 | 355 | 10 | |
| 2008-01-01T00:00 | 3047 | 700 | -5.7 | -22.6 | |||
| 2008-01-01T00:00 | 3050 | 700 | -5.7 | -22.6 | |||
| 2008-01-01T00:00 | 3052 | 700 | -5.8 | -22.7 | |||
| 2008-01-01T00:00 | 3071 | 698 | -5.9 | -22.5 | |||
| 2008-01-01T00:00 | 3078 | 697 | -5.9 | -22.5 | |||
| 2008-01-01T00:00 | 3081 | 697 | -6.0 | -22.5 | |||
| 2008-01-01T00:00 | 3101 | 695 | -6.2 | -22.5 | |||
| 2008-01-01T00:00 | 3110 | 695 | -6.2 | -22.4 | |||
| 2008-01-01T00:00 | 3115 | 694 | -6.3 | -22.5 | |||
| 2008-01-01T00:00 | 3138 | 692 | -6.5 | -22.5 | |||
| 2008-01-01T00:00 | 3147 | 691 | -6.6 | -22.5 | |||
| 2008-01-01T00:00 | 3152 | 691 | -6.6 | -22.5 | |||
| 2008-01-01T00:00 | 3174 | 689 | -6.8 | -22.4 | |||
| 2008-01-01T00:00 | 3182 | 688 | -6.8 | -22.3 | |||
| 2008-01-01T00:00 | 3185 | 688 | -6.9 | -22.4 | |||
| 2008-01-01T00:00 | 3207 | 686 | -7.1 | -22.0 | |||
| 2008-01-01T00:00 | 3217 | 685 | -7.1 | -21.9 | |||
| 2008-01-01T00:00 | 3222 | 685 | -7.1 | -21.8 | |||
| 2008-01-01T00:00 | 3247 | 683 | -7.2 | -21.1 | |||
| 2008-01-01T00:00 | 3257 | 682 | -7.2 | -20.8 | |||
| 2008-01-01T00:00 | 3262 | 681 | -7.3 | -20.7 | |||
| 2008-01-01T00:00 | 3284 | 679 | -7.4 | -20.5 | |||
| 2008-01-01T00:00 | 3295 | 678 | -7.4 | -20.4 | 349 | 11 | |
| 2008-01-01T00:00 | 3299 | 678 | -7.5 | -20.4 | |||
| 2008-01-01T00:00 | 3318 | 676 | -7.7 | -20.3 | |||
| 2008-01-01T00:00 | 3328 | 676 | -7.7 | -20.2 | |||
| 2008-01-01T00:00 | 3332 | 675 | -7.7 | -20.2 | |||
| 2008-01-01T00:00 | 3354 | 673 | -7.8 | -20.1 | |||
| 2008-01-01T00:00 | 3363 | 672 | -7.7 | -19.9 | |||
| 2008-01-01T00:00 | 3368 | 672 | -7.8 | -20.0 | |||
| 2008-01-01T00:00 | 3391 | 670 | -7.9 | -20.0 | |||
| 2008-01-01T00:00 | 3401 | 669 | -8.0 | -20.0 | |||
| 2008-01-01T00:00 | 3406 | 669 | -8.1 | -20.0 | |||
| 2008-01-01T00:00 | 3427 | 667 | -8.2 | -20.1 | |||
| 2008-01-01T00:00 | 3433 | 666 | -8.2 | -20.0 | |||
| 2008-01-01T00:00 | 3436 | 666 | -8.3 | -20.1 | |||
| 2008-01-01T00:00 | 3455 | 665 | -8.3 | -19.9 | |||
| 2008-01-01T00:00 | 3465 | 664 | -8.3 | -19.8 | |||
| 2008-01-01T00:00 | 3469 | 663 | -8.3 | -19.8 | |||
| 2008-01-01T00:00 | 3494 | 661 | -8.5 | -19.8 | |||
| 2008-01-01T00:00 | 3504 | 660 | -8.5 | -19.7 | |||
| 2008-01-01T00:00 | 3509 | 660 | -8.6 | -19.7 | |||
| 2008-01-01T00:00 | 3531 | 658 | -8.7 | -19.6 | |||
| 2008-01-01T00:00 | 3543 | 657 | -8.7 | -19.5 | |||
| 2008-01-01T00:00 | 3546 | 657 | -8.8 | -19.6 | |||
| 2008-01-01T00:00 | 3554 | 656 | -8.9 | -19.5 | 335 | 13 | |
| 2008-01-01T00:00 | 3567 | 655 | -9.0 | -19.5 | |||
| 2008-01-01T00:00 | 3576 | 654 | -9.0 | -19.3 | |||
| 2008-01-01T00:00 | 3580 | 654 | -9.0 | -19.3 | |||
| 2008-01-01T00:00 | 3603 | 652 | -9.1 | -18.8 | |||
| 2008-01-01T00:00 | 3613 | 651 | -9.1 | -18.5 | |||
| 2008-01-01T00:00 | 3618 | 651 | -9.3 | -18.5 | |||
| 2008-01-01T00:00 | 3639 | 649 | -9.4 | -17.9 | |||
| 2008-01-01T00:00 | 3646 | 648 | -9.5 | -17.7 | |||
| 2008-01-01T00:00 | 3650 | 648 | -9.6 | -17.6 | |||
| 2008-01-01T00:00 | 3671 | 646 | -9.8 | -17.4 | |||
| 2008-01-01T00:00 | 3679 | 646 | -9.8 | -17.3 | |||
| 2008-01-01T00:00 | 3684 | 645 | -9.9 | -17.3 | |||
| 2008-01-01T00:00 | 3706 | 643 | -10.0 | -17.0 | |||
| 2008-01-01T00:00 | 3716 | 642 | -10.1 | -16.9 | |||
| 2008-01-01T00:00 | 3720 | 642 | -10.1 | -16.9 | |||
| 2008-01-01T00:00 | 3743 | 640 | -10.2 | -16.9 | |||
| 2008-01-01T00:00 | 3752 | 639 | -10.2 | -16.9 | |||
| 2008-01-01T00:00 | 3757 | 639 | -10.3 | -17.0 | |||
| 2008-01-01T00:00 | 3780 | 637 | -10.2 | -17.0 | |||
| 2008-01-01T00:00 | 3790 | 636 | -10.2 | -17.1 | |||
| 2008-01-01T00:00 | 3795 | 636 | -10.3 | -17.2 | |||
| 2008-01-01T00:00 | 3817 | 634 | -10.5 | -17.4 | |||
| 2008-01-01T00:00 | 3821 | 634 | -10.5 | -17.5 | 351 | 11 | |
| 2008-01-01T00:00 | 3824 | 634 | -10.5 | -17.5 | |||
| 2008-01-01T00:00 | 3827 | 633 | -10.6 | -17.6 | |||
| 2008-01-01T00:00 | 3848 | 632 | -10.8 | -17.8 | |||
| 2008-01-01T00:00 | 3859 | 631 | -10.8 | -17.8 | |||
| 2008-01-01T00:00 | 3864 | 630 | -10.9 | -17.9 | |||
| 2008-01-01T00:00 | 3890 | 628 | -11.1 | -18.1 | |||
| 2008-01-01T00:00 | 3900 | 627 | -11.1 | -18.1 | |||
| 2008-01-01T00:00 | 3905 | 627 | -11.2 | -18.2 | |||
| 2008-01-01T00:00 | 3929 | 625 | -11.3 | -18.4 | |||
| 2008-01-01T00:00 | 3938 | 624 | -11.3 | -18.4 | |||
| 2008-01-01T00:00 | 3943 | 624 | -11.4 | -18.5 | |||
| 2008-01-01T00:00 | 3966 | 622 | -11.6 | -18.6 | |||
| 2008-01-01T00:00 | 3975 | 621 | -11.6 | -18.7 | |||
| 2008-01-01T00:00 | 3980 | 621 | -11.7 | -18.7 | |||
| 2008-01-01T00:00 | 4001 | 619 | -11.9 | -18.9 | |||
| 2008-01-01T00:00 | 4009 | 618 | -11.9 | -18.9 | |||
| 2008-01-01T00:00 | 4013 | 618 | -12.0 | -18.9 | |||
| 2008-01-01T00:00 | 4034 | 616 | -12.1 | -19.0 | |||
| 2008-01-01T00:00 | 4044 | 616 | -12.1 | -19.0 | |||
| 2008-01-01T00:00 | 4048 | 615 | -12.2 | -19.1 | |||
| 2008-01-01T00:00 | 4069 | 614 | -12.4 | -19.1 | |||
| 2008-01-01T00:00 | 4075 | 613 | -12.4 | -19.1 | |||
| 2008-01-01T00:00 | 4078 | 613 | -12.6 | -19.2 | |||
| 2008-01-01T00:00 | 4086 | 612 | -12.6 | -19.2 | 345 | 13 | |
| 2008-01-01T00:00 | 4098 | 611 | -12.7 | -19.3 | |||
| 2008-01-01T00:00 | 4108 | 610 | -12.8 | -19.3 | |||
| 2008-01-01T00:00 | 4113 | 610 | -12.9 | -19.3 | |||
| 2008-01-01T00:00 | 4137 | 608 | -13.0 | -19.3 | |||
| 2008-01-01T00:00 | 4145 | 607 | -13.0 | -19.3 | |||
| 2008-01-01T00:00 | 4150 | 607 | -13.1 | -19.3 | |||
| 2008-01-01T00:00 | 4170 | 606 | -13.3 | -19.2 | |||
| 2008-01-01T00:00 | 4179 | 605 | -13.3 | -19.1 | |||
| 2008-01-01T00:00 | 4183 | 605 | -13.4 | -19.2 | |||
| 2008-01-01T00:00 | 4204 | 603 | -13.5 | -19.1 | |||
| 2008-01-01T00:00 | 4213 | 602 | -13.5 | -18.9 | |||
| 2008-01-01T00:00 | 4218 | 602 | -13.5 | -18.9 | |||
| 2008-01-01T00:00 | 4240 | 600 | -13.5 | -18.6 | |||
| 2008-01-01T00:00 | 4249 | 599 | -13.5 | -18.5 | |||
| 2008-01-01T00:00 | 4254 | 599 | -13.6 | -18.5 | |||
| 2008-01-01T00:00 | 4275 | 597 | -13.8 | -18.5 | |||
| 2008-01-01T00:00 | 4283 | 597 | -13.7 | -18.4 | |||
| 2008-01-01T00:00 | 4287 | 596 | -13.8 | -18.5 | |||
| 2008-01-01T00:00 | 4308 | 595 | -13.9 | -18.5 | |||
| 2008-01-01T00:00 | 4316 | 594 | -13.9 | -18.5 | |||
| 2008-01-01T00:00 | 4321 | 594 | -13.9 | -18.5 | |||
| 2008-01-01T00:00 | 4342 | 592 | -14.0 | -18.7 | |||
| 2008-01-01T00:00 | 4346 | 592 | -14.0 | -18.7 | 341 | 17 | |
| 2008-01-01T00:00 | 4349 | 591 | -14.0 | -18.7 | |||
| 2008-01-01T00:00 | 4353 | 591 | -14.1 | -18.8 | |||
| 2008-01-01T00:00 | 4373 | 590 | -14.3 | -19.1 | |||
| 2008-01-01T00:00 | 4382 | 589 | -14.3 | -19.1 | |||
| 2008-01-01T00:00 | 4386 | 589 | -14.4 | -19.3 | |||
| 2008-01-01T00:00 | 4408 | 587 | -14.6 | -19.5 | |||
| 2008-01-01T00:00 | 4417 | 586 | -14.6 | -19.5 | |||
| 2008-01-01T00:00 | 4422 | 586 | -14.7 | -19.6 | |||
| 2008-01-01T00:00 | 4444 | 584 | -14.9 | -19.9 | |||
| 2008-01-01T00:00 | 4453 | 583 | -14.9 | -19.9 | |||
| 2008-01-01T00:00 | 4458 | 583 | -14.9 | -20.0 | |||
| 2008-01-01T00:00 | 4481 | 581 | -15.1 | -20.2 | |||
| 2008-01-01T00:00 | 4492 | 580 | -15.1 | -20.3 | |||
| 2008-01-01T00:00 | 4497 | 580 | -15.2 | -20.4 | |||
| 2008-01-01T00:00 | 4522 | 578 | -15.4 | -20.6 | |||
| 2008-01-01T00:00 | 4531 | 577 | -15.4 | -20.6 | |||
| 2008-01-01T00:00 | 4535 | 577 | -15.5 | -20.7 | |||
| 2008-01-01T00:00 | 4557 | 575 | -15.7 | -21.0 | |||
| 2008-01-01T00:00 | 4566 | 575 | -15.7 | -21.0 | |||
| 2008-01-01T00:00 | 4571 | 574 | -15.8 | -21.0 | |||
| 2008-01-01T00:00 | 4595 | 572 | -15.7 | -21.2 | |||
| 2008-01-01T00:00 | 4606 | 572 | -15.7 | -21.3 | |||
| 2008-01-01T00:00 | 4612 | 571 | -15.8 | -21.5 | |||
| 2008-01-01T00:00 | 4622 | 570 | -15.8 | -21.6 | 348 | 15 | |
| 2008-01-01T00:00 | 4636 | 569 | -15.9 | -21.9 | |||
| 2008-01-01T00:00 | 4644 | 569 | -15.8 | -22.0 | |||
| 2008-01-01T00:00 | 4648 | 568 | -15.9 | -22.1 | |||
| 2008-01-01T00:00 | 4670 | 567 | -16.0 | -22.7 | |||
| 2008-01-01T00:00 | 4679 | 566 | -16.0 | -22.8 | |||
| 2008-01-01T00:00 | 4684 | 566 | -16.0 | -23.0 | |||
| 2008-01-01T00:00 | 4709 | 564 | -16.1 | -23.3 | |||
| 2008-01-01T00:00 | 4720 | 563 | -16.1 | -23.4 | |||
| 2008-01-01T00:00 | 4725 | 563 | -16.1 | -23.5 | |||
| 2008-01-01T00:00 | 4747 | 561 | -16.3 | -23.8 | |||
| 2008-01-01T00:00 | 4753 | 561 | -16.3 | -23.9 | |||
| 2008-01-01T00:00 | 4756 | 560 | -16.4 | -24.0 | |||
| 2008-01-01T00:00 | 4774 | 559 | -16.5 | -24.2 | |||
| 2008-01-01T00:00 | 4788 | 558 | -16.5 | -24.2 | |||
| 2008-01-01T00:00 | 4793 | 558 | -16.7 | -24.3 | |||
| 2008-01-01T00:00 | 4816 | 556 | -16.8 | -24.6 | |||
| 2008-01-01T00:00 | 4825 | 555 | -16.8 | -24.6 | |||
| 2008-01-01T00:00 | 4830 | 555 | -16.9 | -24.7 | |||
| 2008-01-01T00:00 | 4852 | 553 | -17.2 | -25.0 | |||
| 2008-01-01T00:00 | 4861 | 553 | -17.1 | -25.0 | |||
| 2008-01-01T00:00 | 4865 | 552 | -17.2 | -25.1 | |||
| 2008-01-01T00:00 | 4889 | 551 | -17.3 | -25.3 | 355 | 16 | |
| 2008-01-01T00:00 | 4899 | 550 | -17.3 | -25.4 | |||
| 2008-01-01T00:00 | 4904 | 549 | -17.4 | -25.5 | |||
| 2008-01-01T00:00 | 4929 | 548 | -17.5 | -25.7 | |||
| 2008-01-01T00:00 | 4939 | 547 | -17.5 | -25.8 | |||
| 2008-01-01T00:00 | 4944 | 546 | -17.6 | -25.9 | |||
| 2008-01-01T00:00 | 4970 | 545 | -17.8 | -26.2 | |||
| 2008-01-01T00:00 | 4980 | 544 | -17.8 | -26.2 | |||
| 2008-01-01T00:00 | 4985 | 544 | -17.9 | -26.3 | |||
| 2008-01-01T00:00 | 5009 | 542 | -18.1 | -26.6 | |||
| 2008-01-01T00:00 | 5023 | 541 | -18.1 | -26.6 | |||
| 2008-01-01T00:00 | 5027 | 540 | -18.2 | -26.7 | |||
| 2008-01-01T00:00 | 5050 | 539 | -18.2 | -26.9 | |||
| 2008-01-01T00:00 | 5060 | 538 | -18.2 | -27.0 | |||
| 2008-01-01T00:00 | 5064 | 538 | -18.3 | -27.1 | |||
| 2008-01-01T00:00 | 5087 | 536 | -18.5 | -27.3 | |||
| 2008-01-01T00:00 | 5095 | 536 | -18.5 | -27.4 | |||
| 2008-01-01T00:00 | 5100 | 535 | -18.6 | -27.5 | |||
| 2008-01-01T00:00 | 5122 | 534 | -18.8 | -27.7 | |||
| 2008-01-01T00:00 | 5131 | 533 | -18.8 | -27.7 | |||
| 2008-01-01T00:00 | 5136 | 533 | -19.0 | -27.9 | |||
| 2008-01-01T00:00 | 5159 | 531 | -19.1 | -28.0 | |||
| 2008-01-01T00:00 | 5173 | 530 | -19.1 | -28.0 | 359 | 17 | |
| 2008-01-01T00:00 | 5178 | 530 | -19.2 | -28.1 | |||
| 2008-01-01T00:00 | 5205 | 528 | -19.6 | -28.4 | |||
| 2008-01-01T00:00 | 5219 | 527 | -19.6 | -28.4 | |||
| 2008-01-01T00:00 | 5226 | 526 | -19.7 | -28.5 | |||
| 2008-01-01T00:00 | 5255 | 524 | -19.9 | -28.7 | |||
| 2008-01-01T00:00 | 5264 | 524 | -19.9 | -28.7 | |||
| 2008-01-01T00:00 | 5268 | 523 | -20.0 | -28.8 | |||
| 2008-01-01T00:00 | 5290 | 522 | -20.2 | -29.0 | |||
| 2008-01-01T00:00 | 5297 | 521 | -20.1 | -29.0 | |||
| 2008-01-01T00:00 | 5301 | 521 | -20.2 | -29.0 | |||
| 2008-01-01T00:00 | 5322 | 519 | -20.3 | -29.2 | |||
| 2008-01-01T00:00 | 5335 | 519 | -20.4 | -29.3 | |||
| 2008-01-01T00:00 | 5339 | 518 | -20.4 | -29.4 | |||
| 2008-01-01T00:00 | 5362 | 517 | -20.6 | -29.6 | |||
| 2008-01-01T00:00 | 5371 | 516 | -20.5 | -29.6 | |||
| 2008-01-01T00:00 | 5376 | 516 | -20.6 | -29.7 | |||
| 2008-01-01T00:00 | 5401 | 514 | -20.8 | -29.9 | |||
| 2008-01-01T00:00 | 5411 | 513 | -20.8 | -29.9 | |||
| 2008-01-01T00:00 | 5417 | 513 | -20.8 | -30.0 | |||
| 2008-01-01T00:00 | 5441 | 511 | -20.9 | -30.1 | |||
| 2008-01-01T00:00 | 5454 | 510 | -20.9 | -30.0 | |||
| 2008-01-01T00:00 | 5458 | 510 | -21.0 | -30.2 | |||
| 2008-01-01T00:00 | 5462 | 510 | -21.0 | -30.2 | 358 | 17 | |
| 2008-01-01T00:00 | 5480 | 509 | -21.2 | -30.4 | |||
| 2008-01-01T00:00 | 5489 | 508 | -21.2 | -30.4 | |||
| 2008-01-01T00:00 | 5493 | 508 | -21.3 | -30.4 | |||
| 2008-01-01T00:00 | 5516 | 506 | -21.5 | -30.6 | |||
| 2008-01-01T00:00 | 5524 | 505 | -21.5 | -30.5 | |||
| 2008-01-01T00:00 | 5529 | 505 | -21.6 | -30.6 | |||
| 2008-01-01T00:00 | 5552 | 504 | -21.8 | -30.8 | |||
| 2008-01-01T00:00 | 5567 | 502 | -21.8 | -30.8 | |||
| 2008-01-01T00:00 | 5572 | 502 | -21.9 | -30.8 | |||
| 2008-01-01T00:00 | 5595 | 501 | -22.1 | -31.0 | |||
| 2008-01-01T00:00 | 5604 | 500 | -22.0 | -31.0 | |||
| 2008-01-01T00:00 | 5608 | 500 | -22.2 | -31.1 | |||
| 2008-01-01T00:00 | 5634 | 498 | -22.3 | -31.2 | |||
| 2008-01-01T00:00 | 5646 | 497 | -22.4 | -31.3 | |||
| 2008-01-01T00:00 | 5653 | 497 | -22.5 | -31.4 | |||
| 2008-01-01T00:00 | 5681 | 495 | -22.8 | -31.5 | |||
| 2008-01-01T00:00 | 5689 | 494 | -22.8 | -31.5 | |||
| 2008-01-01T00:00 | 5693 | 494 | -22.9 | -31.6 | |||
| 2008-01-01T00:00 | 5716 | 492 | -23.0 | -31.6 | |||
| 2008-01-01T00:00 | 5732 | 491 | -23.0 | -31.5 | |||
| 2008-01-01T00:00 | 5737 | 491 | -23.1 | -31.6 | |||
| 2008-01-01T00:00 | 5753 | 490 | -23.3 | -31.7 | 352 | 19 | |
| 2008-01-01T00:00 | 5764 | 489 | -23.4 | -31.7 | |||
| 2008-01-01T00:00 | 5775 | 488 | -23.4 | -31.7 | |||
| 2008-01-01T00:00 | 5780 | 488 | -23.4 | -31.8 | |||
| 2008-01-01T00:00 | 5805 | 486 | -23.6 | -32.0 | |||
| 2008-01-01T00:00 | 5812 | 486 | -23.7 | -32.0 | |||
| 2008-01-01T00:00 | 5816 | 486 | -23.8 | -32.1 | |||
| 2008-01-01T00:00 | 5838 | 484 | -24.0 | -32.3 | |||
| 2008-01-01T00:00 | 5854 | 483 | -24.0 | -32.3 | |||
| 2008-01-01T00:00 | 5859 | 483 | -24.1 | -32.4 | |||
| 2008-01-01T00:00 | 5886 | 481 | -24.3 | -32.6 | |||
| 2008-01-01T00:00 | 5898 | 480 | -24.3 | -32.6 | |||
| 2008-01-01T00:00 | 5904 | 480 | -24.4 | -32.7 | |||
| 2008-01-01T00:00 | 5932 | 478 | -24.8 | -33.0 | |||
| 2008-01-01T00:00 | 5943 | 477 | -24.8 | -33.0 | |||
| 2008-01-01T00:00 | 5949 | 477 | -24.9 | -33.1 | |||
| 2008-01-01T00:00 | 5972 | 475 | -25.1 | -33.3 | |||
| 2008-01-01T00:00 | 5983 | 475 | -25.1 | -33.3 | |||
| 2008-01-01T00:00 | 5987 | 474 | -25.2 | -33.4 | |||
| 2008-01-01T00:00 | 6010 | 473 | -25.4 | -33.6 | |||
| 2008-01-01T00:00 | 6022 | 472 | -25.4 | -33.6 | |||
| 2008-01-01T00:00 | 6028 | 472 | -25.5 | -33.7 | |||
| 2008-01-01T00:00 | 6056 | 470 | -25.8 | -33.9 | 350 | 19 | |
| 2008-01-01T00:00 | 6066 | 469 | -25.8 | -33.9 | |||
| 2008-01-01T00:00 | 6071 | 469 | -25.9 | -34.0 | |||
| 2008-01-01T00:00 | 6095 | 467 | -26.1 | -34.2 | |||
| 2008-01-01T00:00 | 6108 | 467 | -26.1 | -34.2 | |||
| 2008-01-01T00:00 | 6112 | 466 | -26.2 | -34.3 | |||
| 2008-01-01T00:00 | 6134 | 465 | -26.5 | -34.5 | |||
| 2008-01-01T00:00 | 6143 | 464 | -26.5 | -34.5 | |||
| 2008-01-01T00:00 | 6147 | 464 | -26.6 | -34.6 | |||
| 2008-01-01T00:00 | 6173 | 462 | -26.8 | -34.8 | |||
| 2008-01-01T00:00 | 6185 | 462 | -26.9 | -34.8 | |||
| 2008-01-01T00:00 | 6192 | 461 | -27.0 | -34.9 | |||
| 2008-01-01T00:00 | 6218 | 460 | -27.2 | -35.1 | |||
| 2008-01-01T00:00 | 6230 | 459 | -27.2 | -35.0 | |||
| 2008-01-01T00:00 | 6233 | 459 | -27.3 | -35.1 | |||
| 2008-01-01T00:00 | 6257 | 457 | -27.5 | -35.3 | |||
| 2008-01-01T00:00 | 6269 | 456 | -27.5 | -35.3 | |||
| 2008-01-01T00:00 | 6275 | 456 | -27.6 | -35.4 | |||
| 2008-01-01T00:00 | 6301 | 454 | -27.8 | -35.6 | |||
| 2008-01-01T00:00 | 6315 | 453 | -27.8 | -35.6 | |||
| 2008-01-01T00:00 | 6320 | 453 | -27.9 | -35.7 | |||
| 2008-01-01T00:00 | 6339 | 452 | -28.1 | -35.9 | |||
| 2008-01-01T00:00 | 6342 | 452 | -28.1 | -35.9 | 354 | 21 | |
| 2008-01-01T00:00 | 6345 | 451 | -28.1 | -35.9 | |||
| 2008-01-01T00:00 | 6348 | 451 | -28.2 | -36.0 | |||
| 2008-01-01T00:00 | 6370 | 450 | -28.4 | -36.3 | |||
| 2008-01-01T00:00 | 6382 | 449 | -28.4 | -36.3 | |||
| 2008-01-01T00:00 | 6389 | 449 | -28.5 | -36.4 | |||
| 2008-01-01T00:00 | 6418 | 447 | -28.8 | -36.7 | |||
| 2008-01-01T00:00 | 6435 | 446 | -28.9 | -36.9 | |||
| 2008-01-01T00:00 | 6440 | 446 | -29.0 | -37.0 | |||
| 2008-01-01T00:00 | 6469 | 444 | -29.3 | -37.3 | |||
| 2008-01-01T00:00 | 6480 | 443 | -29.3 | -37.3 | |||
| 2008-01-01T00:00 | 6486 | 443 | -29.4 | -37.5 | |||
| 2008-01-01T00:00 | 6512 | 441 | -29.7 | -37.7 | |||
| 2008-01-01T00:00 | 6519 | 441 | -29.7 | -37.7 | |||
| 2008-01-01T00:00 | 6527 | 440 | -29.8 | -37.8 | |||
| 2008-01-01T00:00 | 6550 | 439 | -30.0 | -38.0 | |||
| 2008-01-01T00:00 | 6561 | 438 | -30.0 | -38.0 | |||
| 2008-01-01T00:00 | 6566 | 438 | -30.1 | -38.1 | |||
| 2008-01-01T00:00 | 6595 | 436 | -30.4 | -38.3 | |||
| 2008-01-01T00:00 | 6608 | 435 | -30.4 | -38.3 | |||
| 2008-01-01T00:00 | 6615 | 435 | -30.5 | -38.5 | |||
| 2008-01-01T00:00 | 6642 | 433 | -30.7 | -38.6 | |||
| 2008-01-01T00:00 | 6652 | 432 | -30.6 | -38.6 | 351 | 20 | |
| 2008-01-01T00:00 | 6656 | 432 | -30.8 | -38.7 | |||
| 2008-01-01T00:00 | 6680 | 431 | -31.1 | -39.0 | |||
| 2008-01-01T00:00 | 6693 | 430 | -31.1 | -39.0 | |||
| 2008-01-01T00:00 | 6699 | 430 | -31.2 | -39.1 | |||
| 2008-01-01T00:00 | 6729 | 428 | -31.5 | -39.4 | |||
| 2008-01-01T00:00 | 6743 | 427 | -31.5 | -39.4 | |||
| 2008-01-01T00:00 | 6748 | 427 | -31.5 | -39.5 | |||
| 2008-01-01T00:00 | 6774 | 425 | -31.8 | -39.8 | |||
| 2008-01-01T00:00 | 6786 | 424 | -31.8 | -39.8 | |||
| 2008-01-01T00:00 | 6791 | 424 | -31.9 | -39.9 | |||
| 2008-01-01T00:00 | 6816 | 423 | -32.0 | -40.1 | |||
| 2008-01-01T00:00 | 6823 | 422 | -32.0 | -40.1 | |||
| 2008-01-01T00:00 | 6830 | 422 | -32.1 | -40.2 | |||
| 2008-01-01T00:00 | 6854 | 420 | -32.3 | -40.5 | |||
| 2008-01-01T00:00 | 6868 | 419 | -32.2 | -40.4 | |||
| 2008-01-01T00:00 | 6874 | 419 | -32.3 | -40.5 | |||
| 2008-01-01T00:00 | 6904 | 417 | -32.6 | -40.9 | |||
| 2008-01-01T00:00 | 6914 | 417 | -32.5 | -40.8 | |||
| 2008-01-01T00:00 | 6924 | 416 | -32.6 | -41.0 | |||
| 2008-01-01T00:00 | 6950 | 415 | -32.7 | -41.2 | |||
| 2008-01-01T00:00 | 6960 | 414 | -32.7 | -41.3 | |||
| 2008-01-01T00:00 | 6965 | 414 | -32.8 | -41.4 | 353 | 16 | |
| 2008-01-01T00:00 | 6990 | 412 | -33.1 | -41.8 | |||
| 2008-01-01T00:00 | 7000 | 412 | -33.0 | -41.8 | |||
| 2008-01-01T00:00 | 7005 | 411 | -33.1 | -41.9 | |||
| 2008-01-01T00:00 | 7029 | 410 | -33.3 | -42.2 | |||
| 2008-01-01T00:00 | 7044 | 409 | -33.2 | -42.2 | |||
| 2008-01-01T00:00 | 7049 | 409 | -33.3 | -42.3 | |||
| 2008-01-01T00:00 | 7071 | 408 | -33.6 | -42.7 | |||
| 2008-01-01T00:00 | 7078 | 407 | -33.6 | -42.7 | |||
| 2008-01-01T00:00 | 7086 | 407 | -33.7 | -42.8 | |||
| 2008-01-01T00:00 | 7109 | 405 | -33.9 | -43.2 | |||
| 2008-01-01T00:00 | 7122 | 405 | -33.9 | -43.2 | |||
| 2008-01-01T00:00 | 7129 | 404 | -34.0 | -43.3 | |||
| 2008-01-01T00:00 | 7161 | 402 | -34.4 | -43.7 | |||
| 2008-01-01T00:00 | 7180 | 401 | -34.5 | -43.8 | |||
| 2008-01-01T00:00 | 7187 | 401 | -34.6 | -43.9 | |||
| 2008-01-01T00:00 | 7201 | 400 | -34.7 | -44.0 | |||
| 2008-01-01T00:00 | 7217 | 399 | -34.8 | -44.2 | |||
| 2008-01-01T00:00 | 7227 | 399 | -34.8 | -44.2 | |||
| 2008-01-01T00:00 | 7233 | 398 | -35.0 | -44.3 | |||
| 2008-01-01T00:00 | 7257 | 397 | -35.2 | -44.6 | |||
| 2008-01-01T00:00 | 7269 | 396 | -35.2 | -44.6 | |||
| 2008-01-01T00:00 | 7274 | 396 | -35.3 | -44.7 | 349 | 17 | |
| 2008-01-01T00:00 | 7295 | 395 | -35.6 | -44.9 | |||
| 2008-01-01T00:00 | 7305 | 394 | -35.6 | -44.9 | |||
| 2008-01-01T00:00 | 7310 | 394 | -35.7 | -45.0 | |||
| 2008-01-01T00:00 | 7335 | 392 | -35.9 | -45.2 | |||
| 2008-01-01T00:00 | 7351 | 392 | -35.8 | -45.1 | |||
| 2008-01-01T00:00 | 7356 | 391 | -36.0 | -45.2 | |||
| 2008-01-01T00:00 | 7384 | 390 | -36.3 | -45.5 | |||
| 2008-01-01T00:00 | 7395 | 389 | -36.3 | -45.5 | |||
| 2008-01-01T00:00 | 7407 | 388 | -36.4 | -45.6 | |||
| 2008-01-01T00:00 | 7433 | 387 | -36.7 | -45.8 | |||
| 2008-01-01T00:00 | 7443 | 386 | -36.6 | -45.8 | |||
| 2008-01-01T00:00 | 7448 | 386 | -36.7 | -45.9 | |||
| 2008-01-01T00:00 | 7471 | 385 | -36.9 | -46.1 | |||
| 2008-01-01T00:00 | 7485 | 384 | -36.9 | -46.1 | |||
| 2008-01-01T00:00 | 7490 | 384 | -37.0 | -46.1 | |||
| 2008-01-01T00:00 | 7514 | 382 | -37.3 | -46.4 | |||
| 2008-01-01T00:00 | 7523 | 382 | -37.3 | -46.4 | |||
| 2008-01-01T00:00 | 7528 | 382 | -37.4 | -46.5 | |||
| 2008-01-01T00:00 | 7550 | 380 | -37.6 | -46.7 | |||
| 2008-01-01T00:00 | 7563 | 380 | -37.5 | -46.6 | |||
| 2008-01-01T00:00 | 7567 | 379 | -37.7 | -46.8 | 347 | 19 | |
| 2008-01-01T00:00 | 7589 | 378 | -37.9 | -47.0 | |||
| 2008-01-01T00:00 | 7599 | 378 | -37.9 | -47.0 | |||
| 2008-01-01T00:00 | 7608 | 377 | -38.0 | -47.1 | |||
| 2008-01-01T00:00 | 7633 | 376 | -38.2 | -47.3 | |||
| 2008-01-01T00:00 | 7643 | 375 | -38.2 | -47.3 | |||
| 2008-01-01T00:00 | 7648 | 375 | -38.3 | -47.4 | |||
| 2008-01-01T00:00 | 7672 | 374 | -38.6 | -47.6 | |||
| 2008-01-01T00:00 | 7687 | 373 | -38.5 | -47.6 | |||
| 2008-01-01T00:00 | 7691 | 373 | -38.6 | -47.6 | |||
| 2008-01-01T00:00 | 7717 | 371 | -38.8 | -47.9 | |||
| 2008-01-01T00:00 | 7728 | 371 | -38.8 | -47.8 | |||
| 2008-01-01T00:00 | 7734 | 370 | -38.9 | -48.0 | |||
| 2008-01-01T00:00 | 7759 | 369 | -39.1 | -48.2 | |||
| 2008-01-01T00:00 | 7772 | 368 | -39.1 | -48.2 | |||
| 2008-01-01T00:00 | 7776 | 368 | -39.2 | -48.3 | |||
| 2008-01-01T00:00 | 7800 | 367 | -39.5 | -48.6 | |||
| 2008-01-01T00:00 | 7817 | 366 | -39.6 | -48.7 | |||
| 2008-01-01T00:00 | 7822 | 366 | -39.7 | -48.8 | |||
| 2008-01-01T00:00 | 7852 | 364 | -40.0 | -49.1 | |||
| 2008-01-01T00:00 | 7865 | 363 | -40.0 | -49.1 | |||
| 2008-01-01T00:00 | 7872 | 363 | -40.1 | -49.2 | 351 | 19 | |
| 2008-01-01T00:00 | 7899 | 362 | -40.3 | -49.4 | |||
| 2008-01-01T00:00 | 7912 | 361 | -40.3 | -49.4 | |||
| 2008-01-01T00:00 | 7916 | 361 | -40.4 | -49.5 | |||
| 2008-01-01T00:00 | 7937 | 360 | -40.5 | -49.7 | |||
| 2008-01-01T00:00 | 7947 | 359 | -40.5 | -49.7 | |||
| 2008-01-01T00:00 | 7956 | 358 | -40.6 | -49.8 | |||
| 2008-01-01T00:00 | 7980 | 357 | -40.9 | -50.1 | |||
| 2008-01-01T00:00 | 7989 | 357 | -40.9 | -50.1 | |||
| 2008-01-01T00:00 | 7994 | 357 | -41.0 | -50.2 | |||
| 2008-01-01T00:00 | 8015 | 355 | -41.2 | -50.4 | |||
| 2008-01-01T00:00 | 8027 | 355 | -41.2 | -50.4 | |||
| 2008-01-01T00:00 | 8031 | 355 | -41.3 | -50.5 | |||
| 2008-01-01T00:00 | 8050 | 354 | -41.5 | -50.7 | |||
| 2008-01-01T00:00 | 8059 | 353 | -41.5 | -50.7 | |||
| 2008-01-01T00:00 | 8067 | 353 | -41.6 | -50.8 | |||
| 2008-01-01T00:00 | 8088 | 352 | -41.8 | -51.0 | |||
| 2008-01-01T00:00 | 8097 | 351 | -41.7 | -50.9 | |||
| 2008-01-01T00:00 | 8102 | 351 | -41.8 | -51.0 | |||
| 2008-01-01T00:00 | 8125 | 350 | -41.9 | -51.1 | |||
| 2008-01-01T00:00 | 8139 | 349 | -41.8 | -51.0 | 356 | 19 | |
| 2008-01-01T00:00 | 8144 | 349 | -41.8 | -51.0 | |||
| 2008-01-01T00:00 | 8167 | 348 | -42.0 | -51.2 | |||
| 2008-01-01T00:00 | 8179 | 347 | -41.9 | -51.1 | |||
| 2008-01-01T00:00 | 8183 | 347 | -42.0 | -51.2 | |||
| 2008-01-01T00:00 | 8207 | 345 | -42.3 | -51.5 | |||
| 2008-01-01T00:00 | 8218 | 345 | -42.2 | -51.4 | |||
| 2008-01-01T00:00 | 8224 | 345 | -42.3 | -51.5 | |||
| 2008-01-01T00:00 | 8250 | 343 | -42.5 | -51.8 | |||
| 2008-01-01T00:00 | 8263 | 343 | -42.5 | -51.7 | |||
| 2008-01-01T00:00 | 8268 | 342 | -42.6 | -51.8 | |||
| 2008-01-01T00:00 | 8288 | 341 | -42.9 | -52.1 | |||
| 2008-01-01T00:00 | 8299 | 341 | -42.8 | -52.1 | |||
| 2008-01-01T00:00 | 8303 | 341 | -43.0 | -52.2 | |||
| 2008-01-01T00:00 | 8324 | 340 | -43.2 | -52.4 | |||
| 2008-01-01T00:00 | 8334 | 339 | -43.1 | -52.4 | |||
| 2008-01-01T00:00 | 8339 | 339 | -43.3 | -52.5 | |||
| 2008-01-01T00:00 | 8363 | 338 | -43.3 | -52.6 | |||
| 2008-01-01T00:00 | 8377 | 337 | -43.2 | -52.5 | |||
| 2008-01-01T00:00 | 8381 | 337 | -43.3 | -52.6 | |||
| 2008-01-01T00:00 | 8403 | 336 | -43.5 | -52.7 | |||
| 2008-01-01T00:00 | 8412 | 335 | -43.4 | -52.7 | 2 | 18 | |
| 2008-01-01T00:00 | 8416 | 335 | -43.4 | -52.7 | |||
| 2008-01-01T00:00 | 8421 | 335 | -43.5 | -52.8 | |||
| 2008-01-01T00:00 | 8447 | 333 | -43.6 | -52.9 | |||
| 2008-01-01T00:00 | 8460 | 333 | -43.6 | -52.9 | |||
| 2008-01-01T00:00 | 8473 | 332 | -43.7 | -53.0 | |||
| 2008-01-01T00:00 | 8502 | 331 | -43.9 | -53.2 | |||
| 2008-01-01T00:00 | 8511 | 330 | -43.9 | -53.2 | |||
| 2008-01-01T00:00 | 8516 | 330 | -44.0 | -53.3 | |||
| 2008-01-01T00:00 | 8539 | 329 | -44.2 | -53.5 | |||
| 2008-01-01T00:00 | 8553 | 328 | -44.2 | -53.5 | |||
| 2008-01-01T00:00 | 8558 | 328 | -44.3 | -53.6 | |||
| 2008-01-01T00:00 | 8581 | 327 | -44.6 | -53.9 | |||
| 2008-01-01T00:00 | 8595 | 326 | -44.5 | -53.9 | |||
| 2008-01-01T00:00 | 8600 | 326 | -44.6 | -54.0 | |||
| 2008-01-01T00:00 | 8625 | 325 | -44.9 | -54.2 | |||
| 2008-01-01T00:00 | 8635 | 324 | -44.9 | -54.2 | |||
| 2008-01-01T00:00 | 8641 | 324 | -45.0 | -54.3 | |||
| 2008-01-01T00:00 | 8667 | 323 | -45.2 | -54.5 | |||
| 2008-01-01T00:00 | 8683 | 322 | -45.2 | -54.5 | |||
| 2008-01-01T00:00 | 8689 | 322 | -45.3 | -54.6 | |||
| 2008-01-01T00:00 | 8714 | 320 | -45.5 | -54.9 | |||
| 2008-01-01T00:00 | 8719 | 320 | -45.5 | -54.9 | 9 | 21 | |
| 2008-01-01T00:00 | 8728 | 320 | -45.5 | -54.9 | |||
| 2008-01-01T00:00 | 8733 | 319 | -45.7 | -55.0 | |||
| 2008-01-01T00:00 | 8757 | 318 | -46.0 | -55.3 | |||
| 2008-01-01T00:00 | 8772 | 318 | -46.0 | -55.3 | |||
| 2008-01-01T00:00 | 8777 | 317 | -46.1 | -55.4 | |||
| 2008-01-01T00:00 | 8803 | 316 | -46.4 | -55.7 | |||
| 2008-01-01T00:00 | 8815 | 316 | -46.4 | -55.7 | |||
| 2008-01-01T00:00 | 8821 | 315 | -46.5 | -55.8 | |||
| 2008-01-01T00:00 | 8847 | 314 | -46.8 | -56.1 | |||
| 2008-01-01T00:00 | 8860 | 313 | -46.8 | -56.1 | |||
| 2008-01-01T00:00 | 8864 | 313 | -47.0 | -56.2 | |||
| 2008-01-01T00:00 | 8888 | 312 | -47.2 | -56.5 | |||
| 2008-01-01T00:00 | 8906 | 311 | -47.2 | -56.5 | |||
| 2008-01-01T00:00 | 8912 | 311 | -47.3 | -56.6 | |||
| 2008-01-01T00:00 | 8936 | 310 | -47.7 | -56.9 | |||
| 2008-01-01T00:00 | 8947 | 309 | -47.7 | -56.9 | |||
| 2008-01-01T00:00 | 8950 | 309 | -47.7 | -57.0 | |||
| 2008-01-01T00:00 | 8969 | 308 | -48.0 | -57.2 | |||
| 2008-01-01T00:00 | 8978 | 308 | -48.0 | -57.2 | |||
| 2008-01-01T00:00 | 8986 | 307 | -48.1 | -57.3 | |||
| 2008-01-01T00:00 | 9004 | 307 | -48.3 | -57.5 | 14 | 23 | |
| 2008-01-01T00:00 | 9009 | 306 | -48.4 | -57.6 | |||
| 2008-01-01T00:00 | 9018 | 306 | -48.3 | -57.5 | |||
| 2008-01-01T00:00 | 9022 | 306 | -48.4 | -57.6 | |||
| 2008-01-01T00:00 | 9045 | 305 | -48.6 | -57.8 | |||
| 2008-01-01T00:00 | 9057 | 304 | -48.6 | -57.8 | |||
| 2008-01-01T00:00 | 9061 | 304 | -48.7 | -57.8 | |||
| 2008-01-01T00:00 | 9083 | 303 | -48.9 | -58.1 | |||
| 2008-01-01T00:00 | 9096 | 302 | -48.8 | -58.0 | |||
| 2008-01-01T00:00 | 9100 | 302 | -48.9 | -58.1 | |||
| 2008-01-01T00:00 | 9121 | 301 | -49.2 | -58.3 | |||
| 2008-01-01T00:00 | 9134 | 301 | -49.1 | -58.2 | |||
| 2008-01-01T00:00 | 9138 | 300 | -49.2 | -58.3 | |||
| 2008-01-01T00:00 | 9148 | 300 | -49.3 | -58.5 | |||
| 2008-01-01T00:00 | 9158 | 300 | -49.4 | -58.6 | |||
| 2008-01-01T00:00 | 9166 | 299 | -49.4 | -58.5 | |||
| 2008-01-01T00:00 | 9174 | 299 | -49.5 | -58.6 | |||
| 2008-01-01T00:00 | 9197 | 298 | -49.7 | -58.8 | |||
| 2008-01-01T00:00 | 9208 | 297 | -49.7 | -58.8 | |||
| 2008-01-01T00:00 | 9214 | 297 | -49.8 | -58.9 | |||
| 2008-01-01T00:00 | 9237 | 296 | -50.0 | -59.1 | |||
| 2008-01-01T00:00 | 9248 | 295 | -49.9 | -59.0 | |||
| 2008-01-01T00:00 | 9251 | 295 | -50.0 | -59.1 | |||
| 2008-01-01T00:00 | 9262 | 295 | -50.2 | -59.3 | 8 | 22 | |
| 2008-01-01T00:00 | 9270 | 294 | -50.3 | -59.4 | |||
| 2008-01-01T00:00 | 9282 | 294 | -50.2 | -59.3 | |||
| 2008-01-01T00:00 | 9285 | 294 | -50.3 | -59.4 | |||
| 2008-01-01T00:00 | 9309 | 293 | -50.6 | -59.6 | |||
| 2008-01-01T00:00 | 9327 | 292 | -50.4 | -59.5 | |||
| 2008-01-01T00:00 | 9333 | 292 | -50.6 | -59.6 | |||
| 2008-01-01T00:00 | 9359 | 290 | -50.8 | -59.8 | |||
| 2008-01-01T00:00 | 9369 | 290 | -50.7 | -59.8 | |||
| 2008-01-01T00:00 | 9378 | 290 | -50.8 | -59.9 | |||
| 2008-01-01T00:00 | 9403 | 288 | -51.1 | -60.1 | |||
| 2008-01-01T00:00 | 9414 | 288 | -51.0 | -60.1 | |||
| 2008-01-01T00:00 | 9419 | 288 | -51.1 | -60.1 | |||
| 2008-01-01T00:00 | 9445 | 287 | -51.4 | -60.3 | |||
| 2008-01-01T00:00 | 9458 | 286 | -51.2 | -60.2 | |||
| 2008-01-01T00:00 | 9462 | 286 | -51.3 | -60.3 | |||
| 2008-01-01T00:00 | 9484 | 285 | -51.6 | -60.5 | |||
| 2008-01-01T00:00 | 9498 | 284 | -51.5 | -60.5 | |||
| 2008-01-01T00:00 | 9503 | 284 | -51.6 | -60.6 | |||
| 2008-01-01T00:00 | 9526 | 283 | -51.9 | -60.8 | |||
| 2008-01-01T00:00 | 9540 | 282 | -51.9 | -60.8 | |||
| 2008-01-01T00:00 | 9544 | 282 | -52.0 | -60.9 | |||
| 2008-01-01T00:00 | 9550 | 282 | -52.1 | -61.0 | 0 | 20 | |
| 2008-01-01T00:00 | 9571 | 281 | -52.3 | -61.2 | |||
| 2008-01-01T00:00 | 9591 | 280 | -52.3 | -61.2 | |||
| 2008-01-01T00:00 | 9597 | 280 | -52.4 | -61.3 | |||
| 2008-01-01T00:00 | 9626 | 279 | -52.7 | -61.6 | |||
| 2008-01-01T00:00 | 9635 | 278 | -52.7 | -61.6 | |||
| 2008-01-01T00:00 | 9644 | 278 | -52.7 | -61.6 | |||
| 2008-01-01T00:00 | 9669 | 277 | -53.2 | -62.0 | |||
| 2008-01-01T00:00 | 9679 | 276 | -53.0 | -61.8 | |||
| 2008-01-01T00:00 | 9684 | 276 | -53.1 | -62.0 | |||
| 2008-01-01T00:00 | 9712 | 275 | -53.6 | -62.4 | |||
| 2008-01-01T00:00 | 9729 | 274 | -53.5 | -62.3 | |||
| 2008-01-01T00:00 | 9735 | 274 | -53.6 | -62.4 | |||
| 2008-01-01T00:00 | 9764 | 273 | -54.0 | -62.8 | |||
| 2008-01-01T00:00 | 9783 | 272 | -54.0 | -62.8 | |||
| 2008-01-01T00:00 | 9789 | 272 | -54.1 | -62.9 | |||
| 2008-01-01T00:00 | 9819 | 270 | -54.4 | -63.1 | |||
| 2008-01-01T00:00 | 9836 | 270 | -54.5 | -63.2 | |||
| 2008-01-01T00:00 | 9842 | 270 | -54.5 | -63.2 | |||
| 2008-01-01T00:00 | 9866 | 268 | -54.8 | -63.5 | |||
| 2008-01-01T00:00 | 9877 | 268 | -54.6 | -63.3 | 358 | 23 | |
| 2008-01-01T00:00 | 9880 | 268 | -54.7 | -63.4 | |||
| 2008-01-01T00:00 | 9899 | 267 | -54.8 | -63.5 | |||
| 2008-01-01T00:00 | 9911 | 267 | -54.7 | -63.4 | |||
| 2008-01-01T00:00 | 9916 | 266 | -54.8 | -63.5 | |||
| 2008-01-01T00:00 | 9937 | 266 | -55.0 | -63.7 | |||
| 2008-01-01T00:00 | 9945 | 265 | -54.9 | -63.6 | |||
| 2008-01-01T00:00 | 9952 | 265 | -55.0 | -63.7 | |||
| 2008-01-01T00:00 | 9974 | 264 | -55.3 | -64.0 | |||
| 2008-01-01T00:00 | 9983 | 264 | -55.3 | -63.9 | |||
| 2008-01-01T00:00 | 9992 | 263 | -55.3 | -64.0 | |||
| 2008-01-01T00:00 | 10015 | 262 | -55.6 | -64.2 | |||
| 2008-01-01T00:00 | 10024 | 262 | -55.5 | -64.1 | |||
| 2008-01-01T00:00 | 10028 | 262 | -55.5 | -64.1 | |||
| 2008-01-01T00:00 | 10050 | 261 | -55.8 | -64.4 | |||
| 2008-01-01T00:00 | 10063 | 260 | -55.8 | -64.4 | |||
| 2008-01-01T00:00 | 10067 | 260 | -55.9 | -64.5 | |||
| 2008-01-01T00:00 | 10089 | 259 | -56.2 | -64.7 | |||
| 2008-01-01T00:00 | 10103 | 259 | -56.1 | -64.6 | |||
| 2008-01-01T00:00 | 10107 | 259 | -56.1 | -64.7 | |||
| 2008-01-01T00:00 | 10129 | 258 | -56.4 | -64.9 | |||
| 2008-01-01T00:00 | 10133 | 257 | -56.4 | -64.9 | 357 | 22 | |
| 2008-01-01T00:00 | 10141 | 257 | -56.3 | -64.8 | |||
| 2008-01-01T00:00 | 10145 | 257 | -56.4 | -64.9 | |||
| 2008-01-01T00:00 | 10166 | 256 | -56.7 | -65.2 | |||
| 2008-01-01T00:00 | 10180 | 256 | -56.6 | -65.1 | |||
| 2008-01-01T00:00 | 10184 | 255 | -56.7 | -65.2 | |||
| 2008-01-01T00:00 | 10208 | 254 | -57.0 | -65.5 | |||
| 2008-01-01T00:00 | 10224 | 254 | -57.0 | -65.5 | |||
| 2008-01-01T00:00 | 10229 | 254 | -57.0 | -65.5 | |||
| 2008-01-01T00:00 | 10255 | 253 | -57.4 | -65.8 | |||
| 2008-01-01T00:00 | 10270 | 252 | -57.3 | -65.7 | |||
| 2008-01-01T00:00 | 10275 | 252 | -57.4 | -65.8 | |||
| 2008-01-01T00:00 | 10304 | 251 | -57.7 | -66.2 | |||
| 2008-01-01T00:00 | 10318 | 250 | -57.7 | -66.1 | |||
| 2008-01-01T00:00 | 10320 | 250 | -57.7 | -66.1 | |||
| 2008-01-01T00:00 | 10331 | 250 | -57.8 | -66.3 | |||
| 2008-01-01T00:00 | 10358 | 248 | -58.2 | -66.6 | |||
| 2008-01-01T00:00 | 10365 | 248 | -58.2 | -66.5 | |||
| 2008-01-01T00:00 | 10371 | 248 | -58.3 | -66.6 | |||
| 2008-01-01T00:00 | 10392 | 247 | -58.5 | -66.9 | |||
| 2008-01-01T00:00 | 10402 | 247 | -58.4 | -66.8 | |||
| 2008-01-01T00:00 | 10407 | 247 | -58.5 | -66.9 | |||
| 2008-01-01T00:00 | 10427 | 246 | -58.8 | -67.1 | 359 | 20 | |
| 2008-01-01T00:00 | 10432 | 246 | -58.8 | -67.2 | |||
| 2008-01-01T00:00 | 10448 | 245 | -58.8 | -67.1 | |||
| 2008-01-01T00:00 | 10453 | 245 | -58.9 | -67.2 | |||
| 2008-01-01T00:00 | 10480 | 244 | -59.2 | -67.5 | |||
| 2008-01-01T00:00 | 10497 | 243 | -59.1 | -67.4 | |||
| 2008-01-01T00:00 | 10502 | 243 | -59.3 | -67.5 | |||
| 2008-01-01T00:00 | 10528 | 242 | -59.6 | -67.8 | |||
| 2008-01-01T00:00 | 10541 | 241 | -59.5 | -67.8 | |||
| 2008-01-01T00:00 | 10545 | 241 | -59.6 | -67.8 | |||
| 2008-01-01T00:00 | 10568 | 240 | -59.9 | -68.1 | |||
| 2008-01-01T00:00 | 10583 | 240 | -59.9 | -68.1 | |||
| 2008-01-01T00:00 | 10589 | 240 | -60.0 | -68.2 | |||
| 2008-01-01T00:00 | 10613 | 239 | -60.3 | -68.5 | |||
| 2008-01-01T00:00 | 10627 | 238 | -60.2 | -68.4 | |||
| 2008-01-01T00:00 | 10631 | 238 | -60.4 | -68.5 | |||
| 2008-01-01T00:00 | 10652 | 237 | -60.7 | -68.8 | |||
| 2008-01-01T00:00 | 10663 | 237 | -60.6 | -68.8 | |||
| 2008-01-01T00:00 | 10667 | 237 | -60.7 | -68.8 | |||
| 2008-01-01T00:00 | 10687 | 236 | -61.0 | -69.2 | |||
| 2008-01-01T00:00 | 10702 | 235 | -61.0 | -69.1 | |||
| 2008-01-01T00:00 | 10707 | 235 | -61.0 | -69.2 | |||
| 2008-01-01T00:00 | 10711 | 235 | -61.1 | -69.2 | 357 | 17 | |
| 2008-01-01T00:00 | 10728 | 234 | -61.4 | -69.4 | |||
| 2008-01-01T00:00 | 10739 | 234 | -61.3 | -69.4 | |||
| 2008-01-01T00:00 | 10742 | 234 | -61.4 | -69.5 | |||
| 2008-01-01T00:00 | 10764 | 233 | -61.7 | -69.8 | |||
| 2008-01-01T00:00 | 10780 | 232 | -61.6 | -69.7 | |||
| 2008-01-01T00:00 | 10786 | 232 | -61.7 | -69.8 | |||
| 2008-01-01T00:00 | 10809 | 231 | -62.0 | -70.1 | |||
| 2008-01-01T00:00 | 10820 | 231 | -62.0 | -70.0 | |||
| 2008-01-01T00:00 | 10823 | 231 | -62.0 | -70.1 | |||
| 2008-01-01T00:00 | 10844 | 230 | -62.3 | -70.3 | |||
| 2008-01-01T00:00 | 10858 | 229 | -62.2 | -70.2 | |||
| 2008-01-01T00:00 | 10863 | 229 | -62.3 | -70.3 | |||
| 2008-01-01T00:00 | 10885 | 228 | -62.5 | -70.5 | |||
| 2008-01-01T00:00 | 10892 | 228 | -62.3 | -70.3 | |||
| 2008-01-01T00:00 | 10899 | 228 | -62.4 | -70.4 | |||
| 2008-01-01T00:00 | 10921 | 227 | -62.5 | -70.5 | |||
| 2008-01-01T00:00 | 10931 | 227 | -62.3 | -70.3 | |||
| 2008-01-01T00:00 | 10941 | 226 | -62.4 | -70.4 | |||
| 2008-01-01T00:00 | 10966 | 225 | -62.5 | -70.5 | |||
| 2008-01-01T00:00 | 10976 | 225 | -62.4 | -70.4 | 349 | 16 | |
| 2008-01-01T00:00 | 10987 | 225 | -62.6 | -70.5 | |||
| 2008-01-01T00:00 | 11009 | 224 | -62.8 | -70.7 | |||
| 2008-01-01T00:00 | 11016 | 224 | -62.6 | -70.6 | |||
| 2008-01-01T00:00 | 11024 | 223 | -62.7 | -70.7 | |||
| 2008-01-01T00:00 | 11043 | 223 | -62.9 | -70.8 | |||
| 2008-01-01T00:00 | 11053 | 222 | -62.7 | -70.7 | |||
| 2008-01-01T00:00 | 11062 | 222 | -62.8 | -70.8 | |||
| 2008-01-01T00:00 | 11085 | 221 | -63.0 | -71.0 | |||
| 2008-01-01T00:00 | 11095 | 221 | -63.0 | -70.9 | |||
| 2008-01-01T00:00 | 11100 | 220 | -63.0 | -71.0 | |||
| 2008-01-01T00:00 | 11124 | 220 | -63.3 | -71.2 | |||
| 2008-01-01T00:00 | 11136 | 219 | -63.1 | -71.0 | |||
| 2008-01-01T00:00 | 11141 | 219 | -63.2 | -71.1 | |||
| 2008-01-01T00:00 | 11161 | 218 | -63.4 | -71.3 | |||
| 2008-01-01T00:00 | 11174 | 218 | -63.2 | -71.1 | |||
| 2008-01-01T00:00 | 11178 | 218 | -63.3 | -71.2 | |||
| 2008-01-01T00:00 | 11199 | 217 | -63.3 | -71.2 | |||
| 2008-01-01T00:00 | 11212 | 217 | -63.2 | -71.1 | |||
| 2008-01-01T00:00 | 11216 | 216 | -63.1 | -71.0 | |||
| 2008-01-01T00:00 | 11238 | 216 | -63.1 | -71.0 | 343 | 18 | |
| 2008-01-01T00:00 | 11252 | 215 | -62.9 | -70.8 | |||
| 2008-01-01T00:00 | 11257 | 215 | -62.8 | -70.8 | |||
| 2008-01-01T00:00 | 11279 | 214 | -62.7 | -70.7 | |||
| 2008-01-01T00:00 | 11290 | 214 | -62.5 | -70.5 | |||
| 2008-01-01T00:00 | 11293 | 214 | -62.6 | -70.6 | |||
| 2008-01-01T00:00 | 11311 | 213 | -62.8 | -70.7 | |||
| 2008-01-01T00:00 | 11322 | 213 | -62.6 | -70.5 | |||
| 2008-01-01T00:00 | 11326 | 213 | -62.5 | -70.5 | |||
| 2008-01-01T00:00 | 11346 | 212 | -62.2 | -70.2 | |||
| 2008-01-01T00:00 | 11359 | 211 | -61.9 | -69.9 | |||
| 2008-01-01T00:00 | 11364 | 211 | -61.9 | -69.9 | |||
| 2008-01-01T00:00 | 11384 | 211 | -61.6 | -69.7 | |||
| 2008-01-01T00:00 | 11394 | 210 | -61.2 | -69.3 | |||
| 2008-01-01T00:00 | 11398 | 210 | -61.2 | -69.2 | |||
| 2008-01-01T00:00 | 11416 | 209 | -60.9 | -69.1 | |||
| 2008-01-01T00:00 | 11429 | 209 | -60.8 | -68.9 | |||
| 2008-01-01T00:00 | 11433 | 209 | -60.8 | -68.9 | |||
| 2008-01-01T00:00 | 11454 | 208 | -60.9 | -69.0 | |||
| 2008-01-01T00:00 | 11462 | 208 | -60.8 | -68.9 | |||
| 2008-01-01T00:00 | 11470 | 208 | -60.9 | -69.0 | |||
| 2008-01-01T00:00 | 11478 | 207 | -61.0 | -69.1 | 340 | 19 | |
| 2008-01-01T00:00 | 11491 | 207 | -61.1 | -69.2 | |||
| 2008-01-01T00:00 | 11501 | 207 | -61.0 | -69.1 | |||
| 2008-01-01T00:00 | 11506 | 206 | -61.0 | -69.1 | |||
| 2008-01-01T00:00 | 11526 | 206 | -61.1 | -69.2 | |||
| 2008-01-01T00:00 | 11536 | 205 | -61.0 | -69.1 | |||
| 2008-01-01T00:00 | 11540 | 205 | -61.1 | -69.2 | |||
| 2008-01-01T00:00 | 11557 | 205 | -61.4 | -69.4 | |||
| 2008-01-01T00:00 | 11568 | 204 | -61.2 | -69.3 | |||
| 2008-01-01T00:00 | 11572 | 204 | -61.2 | -69.3 | |||
| 2008-01-01T00:00 | 11591 | 204 | -61.5 | -69.5 | |||
| 2008-01-01T00:00 | 11604 | 203 | -61.3 | -69.4 | |||
| 2008-01-01T00:00 | 11608 | 203 | -61.3 | -69.4 | |||
| 2008-01-01T00:00 | 11631 | 202 | -61.5 | -69.6 | |||
| 2008-01-01T00:00 | 11646 | 202 | -61.4 | -69.5 | |||
| 2008-01-01T00:00 | 11650 | 202 | -61.5 | -69.5 | |||
| 2008-01-01T00:00 | 11674 | 201 | -61.7 | -69.7 | |||
| 2008-01-01T00:00 | 11686 | 201 | -61.4 | -69.4 | |||
| 2008-01-01T00:00 | 11690 | 200 | -61.3 | -69.4 | |||
| 2008-01-01T00:00 | 11703 | 200 | -61.4 | -69.5 | |||
| 2008-01-01T00:00 | 11710 | 200 | -61.5 | ||||
| 2008-01-01T00:00 | 11716 | 200 | -61.3 | ||||
| 2008-01-01T00:00 | 11723 | 199 | -61.3 | 339 | 17 | ||
| 2008-01-01T00:00 | 11739 | 199 | -61.6 | ||||
| 2008-01-01T00:00 | 11744 | 199 | -61.5 | ||||
| 2008-01-01T00:00 | 11750 | 198 | -61.5 | ||||
| 2008-01-01T00:00 | 11769 | 198 | -61.7 | ||||
| 2008-01-01T00:00 | 11780 | 198 | -61.6 | ||||
| 2008-01-01T00:00 | 11786 | 197 | -61.6 | ||||
| 2008-01-01T00:00 | 11810 | 197 | -62.0 | ||||
| 2008-01-01T00:00 | 11822 | 196 | -61.8 | ||||
| 2008-01-01T00:00 | 11826 | 196 | -61.8 | ||||
| 2008-01-01T00:00 | 11847 | 195 | -62.0 | ||||
| 2008-01-01T00:00 | 11861 | 195 | -61.8 | ||||
| 2008-01-01T00:00 | 11865 | 195 | -61.9 | ||||
| 2008-01-01T00:00 | 11887 | 194 | -62.0 | ||||
| 2008-01-01T00:00 | 11897 | 194 | -61.9 | ||||
| 2008-01-01T00:00 | 11901 | 194 | -62.0 | ||||
| 2008-01-01T00:00 | 11919 | 193 | -62.0 | ||||
| 2008-01-01T00:00 | 11930 | 193 | -61.7 | ||||
| 2008-01-01T00:00 | 11934 | 193 | -61.7 | ||||
| 2008-01-01T00:00 | 11955 | 192 | -61.7 | ||||
| 2008-01-01T00:00 | 11965 | 192 | -61.5 | 327 | 16 | ||
| 2008-01-01T00:00 | 11974 | 191 | -61.5 | ||||
| 2008-01-01T00:00 | 11997 | 191 | -61.6 | ||||
| 2008-01-01T00:00 | 12006 | 190 | -61.4 | ||||
| 2008-01-01T00:00 | 12010 | 190 | -61.4 | ||||
| 2008-01-01T00:00 | 12031 | 190 | -61.6 | ||||
| 2008-01-01T00:00 | 12045 | 189 | -61.4 | ||||
| 2008-01-01T00:00 | 12050 | 189 | -61.5 | ||||
| 2008-01-01T00:00 | 12073 | 188 | -61.2 | ||||
| 2008-01-01T00:00 | 12086 | 188 | -61.0 | ||||
| 2008-01-01T00:00 | 12090 | 188 | -61.1 | ||||
| 2008-01-01T00:00 | 12113 | 187 | -61.3 | ||||
| 2008-01-01T00:00 | 12126 | 187 | -61.1 | ||||
| 2008-01-01T00:00 | 12131 | 187 | -61.2 | ||||
| 2008-01-01T00:00 | 12151 | 186 | -61.4 | ||||
| 2008-01-01T00:00 | 12158 | 186 | -61.2 | ||||
| 2008-01-01T00:00 | 12165 | 186 | -61.2 | ||||
| 2008-01-01T00:00 | 12185 | 185 | -60.8 | ||||
| 2008-01-01T00:00 | 12193 | 185 | -60.6 | ||||
| 2008-01-01T00:00 | 12198 | 185 | -60.6 | ||||
| 2008-01-01T00:00 | 12223 | 184 | -59.8 | ||||
| 2008-01-01T00:00 | 12228 | 184 | -59.8 | 331 | 19 | ||
| 2008-01-01T00:00 | 12239 | 183 | -59.6 | ||||
| 2008-01-01T00:00 | 12245 | 183 | -59.7 | ||||
| 2008-01-01T00:00 | 12269 | 183 | -59.9 | ||||
| 2008-01-01T00:00 | 12280 | 182 | -59.5 | ||||
| 2008-01-01T00:00 | 12284 | 182 | -59.7 | ||||
| 2008-01-01T00:00 | 12302 | 182 | -59.6 | ||||
| 2008-01-01T00:00 | 12313 | 181 | -59.3 | ||||
| 2008-01-01T00:00 | 12316 | 181 | -59.3 | ||||
| 2008-01-01T00:00 | 12335 | 181 | -59.1 | ||||
| 2008-01-01T00:00 | 12344 | 180 | -58.9 | ||||
| 2008-01-01T00:00 | 12348 | 180 | -59.0 | ||||
| 2008-01-01T00:00 | 12376 | 179 | -59.2 | ||||
| 2008-01-01T00:00 | 12386 | 179 | -59.0 | ||||
| 2008-01-01T00:00 | 12391 | 179 | -59.0 | ||||
| 2008-01-01T00:00 | 12412 | 178 | -59.2 | ||||
| 2008-01-01T00:00 | 12421 | 178 | -58.6 | ||||
| 2008-01-01T00:00 | 12425 | 178 | -58.7 | ||||
| 2008-01-01T00:00 | 12444 | 178 | -58.6 | ||||
| 2008-01-01T00:00 | 12453 | 177 | -58.4 | ||||
| 2008-01-01T00:00 | 12463 | 177 | -58.4 | ||||
| 2008-01-01T00:00 | 12480 | 176 | -58.2 | 335 | 19 | ||
| 2008-01-01T00:00 | 12485 | 176 | -58.1 | ||||
| 2008-01-01T00:00 | 12492 | 176 | -57.8 | ||||
| 2008-01-01T00:00 | 12496 | 176 | -57.7 | ||||
| 2008-01-01T00:00 | 12514 | 176 | -57.7 | ||||
| 2008-01-01T00:00 | 12525 | 175 | -57.3 | ||||
| 2008-01-01T00:00 | 12528 | 175 | -57.3 | ||||
| 2008-01-01T00:00 | 12548 | 175 | -57.6 | ||||
| 2008-01-01T00:00 | 12563 | 174 | -57.4 | ||||
| 2008-01-01T00:00 | 12568 | 174 | -57.5 | ||||
| 2008-01-01T00:00 | 12592 | 173 | -57.5 | ||||
| 2008-01-01T00:00 | 12601 | 173 | -57.3 | ||||
| 2008-01-01T00:00 | 12605 | 173 | -57.3 | ||||
| 2008-01-01T00:00 | 12628 | 172 | -57.3 | ||||
| 2008-01-01T00:00 | 12642 | 172 | -57.2 | ||||
| 2008-01-01T00:00 | 12646 | 172 | -57.3 | ||||
| 2008-01-01T00:00 | 12667 | 171 | -57.5 | ||||
| 2008-01-01T00:00 | 12679 | 171 | -57.3 | ||||
| 2008-01-01T00:00 | 12683 | 171 | -57.4 | ||||
| 2008-01-01T00:00 | 12703 | 170 | -57.4 | ||||
| 2008-01-01T00:00 | 12713 | 170 | -57.2 | ||||
| 2008-01-01T00:00 | 12717 | 170 | -57.2 | ||||
| 2008-01-01T00:00 | 12735 | 170 | -57.3 | 336 | 17 | ||
| 2008-01-01T00:00 | 12740 | 169 | -57.4 | ||||
| 2008-01-01T00:00 | 12752 | 169 | -57.2 | ||||
| 2008-01-01T00:00 | 12756 | 169 | -57.2 | ||||
| 2008-01-01T00:00 | 12775 | 168 | -57.5 | ||||
| 2008-01-01T00:00 | 12786 | 168 | -57.3 | ||||
| 2008-01-01T00:00 | 12790 | 168 | -57.3 | ||||
| 2008-01-01T00:00 | 12811 | 168 | -57.5 | ||||
| 2008-01-01T00:00 | 12821 | 167 | -57.4 | ||||
| 2008-01-01T00:00 | 12826 | 167 | -57.4 | ||||
| 2008-01-01T00:00 | 12848 | 167 | -57.5 | ||||
| 2008-01-01T00:00 | 12859 | 166 | -57.4 | ||||
| 2008-01-01T00:00 | 12862 | 166 | -57.4 | ||||
| 2008-01-01T00:00 | 12881 | 166 | -57.5 | ||||
| 2008-01-01T00:00 | 12895 | 165 | -57.3 | ||||
| 2008-01-01T00:00 | 12899 | 165 | -57.3 | ||||
| 2008-01-01T00:00 | 12921 | 165 | -57.2 | ||||
| 2008-01-01T00:00 | 12930 | 164 | -56.8 | ||||
| 2008-01-01T00:00 | 12934 | 164 | -56.7 | ||||
| 2008-01-01T00:00 | 12955 | 164 | -56.6 | ||||
| 2008-01-01T00:00 | 12967 | 163 | -56.3 | ||||
| 2008-01-01T00:00 | 12971 | 163 | -56.2 | ||||
| 2008-01-01T00:00 | 12982 | 163 | -56.0 | 328 | 21 | ||
| 2008-01-01T00:00 | 12989 | 163 | -55.9 | ||||
| 2008-01-01T00:00 | 12996 | 163 | -55.6 | ||||
| 2008-01-01T00:00 | 13004 | 162 | -55.7 | ||||
| 2008-01-01T00:00 | 13024 | 162 | -55.9 | ||||
| 2008-01-01T00:00 | 13033 | 162 | -55.5 | ||||
| 2008-01-01T00:00 | 13038 | 162 | -55.6 | ||||
| 2008-01-01T00:00 | 13060 | 161 | -55.4 | ||||
| 2008-01-01T00:00 | 13072 | 161 | -55.2 | ||||
| 2008-01-01T00:00 | 13076 | 161 | -55.2 | ||||
| 2008-01-01T00:00 | 13100 | 160 | -55.2 | ||||
| 2008-01-01T00:00 | 13111 | 160 | -54.9 | ||||
| 2008-01-01T00:00 | 13117 | 160 | -54.9 | ||||
| 2008-01-01T00:00 | 13141 | 159 | -55.2 | ||||
| 2008-01-01T00:00 | 13151 | 159 | -55.0 | ||||
| 2008-01-01T00:00 | 13154 | 159 | -55.2 | ||||
| 2008-01-01T00:00 | 13173 | 158 | -55.2 | ||||
| 2008-01-01T00:00 | 13181 | 158 | -55.0 | ||||
| 2008-01-01T00:00 | 13190 | 158 | -55.0 | ||||
| 2008-01-01T00:00 | 13213 | 157 | -55.1 | ||||
| 2008-01-01T00:00 | 13223 | 157 | -54.9 | ||||
| 2008-01-01T00:00 | 13228 | 157 | -55.0 | ||||
| 2008-01-01T00:00 | 13242 | 157 | -55.0 | 333 | 20 | ||
| 2008-01-01T00:00 | 13251 | 156 | -55.0 | ||||
| 2008-01-01T00:00 | 13262 | 156 | -54.7 | ||||
| 2008-01-01T00:00 | 13266 | 156 | -54.7 | ||||
| 2008-01-01T00:00 | 13287 | 155 | -54.9 | ||||
| 2008-01-01T00:00 | 13296 | 155 | -54.6 | ||||
| 2008-01-01T00:00 | 13301 | 155 | -54.7 | ||||
| 2008-01-01T00:00 | 13324 | 155 | -54.8 | ||||
| 2008-01-01T00:00 | 13337 | 154 | -54.6 | ||||
| 2008-01-01T00:00 | 13341 | 154 | -54.7 | ||||
| 2008-01-01T00:00 | 13363 | 154 | -55.0 | ||||
| 2008-01-01T00:00 | 13372 | 153 | -54.8 | ||||
| 2008-01-01T00:00 | 13376 | 153 | -54.9 | ||||
| 2008-01-01T00:00 | 13396 | 153 | -55.2 | ||||
| 2008-01-01T00:00 | 13405 | 153 | -55.0 | ||||
| 2008-01-01T00:00 | 13408 | 153 | -55.1 | ||||
| 2008-01-01T00:00 | 13425 | 152 | -55.1 | ||||
| 2008-01-01T00:00 | 13434 | 152 | -54.8 | ||||
| 2008-01-01T00:00 | 13442 | 152 | -54.9 | ||||
| 2008-01-01T00:00 | 13465 | 151 | -55.0 | ||||
| 2008-01-01T00:00 | 13476 | 151 | -54.8 | ||||
| 2008-01-01T00:00 | 13481 | 151 | -54.8 | ||||
| 2008-01-01T00:00 | 13495 | 150 | -54.8 | 332 | 19 | ||
| 2008-01-01T00:00 | 13504 | 150 | -54.8 | ||||
| 2008-01-01T00:00 | 13511 | 150 | -54.7 | ||||
| 2008-01-01T00:00 | 13514 | 150 | -54.7 | ||||
| 2008-01-01T00:00 | 13519 | 150 | -54.7 | ||||
| 2008-01-01T00:00 | 13540 | 149 | -55.0 | ||||
| 2008-01-01T00:00 | 13551 | 149 | -54.5 | ||||
| 2008-01-01T00:00 | 13556 | 149 | -54.5 | ||||
| 2008-01-01T00:00 | 13579 | 148 | -54.1 | ||||
| 2008-01-01T00:00 | 13591 | 148 | -53.9 | ||||
| 2008-01-01T00:00 | 13594 | 148 | -53.9 | ||||
| 2008-01-01T00:00 | 13615 | 148 | -54.0 | ||||
| 2008-01-01T00:00 | 13624 | 147 | -53.8 | ||||
| 2008-01-01T00:00 | 13629 | 147 | -53.9 | ||||
| 2008-01-01T00:00 | 13652 | 147 | -54.0 | ||||
| 2008-01-01T00:00 | 13665 | 146 | -53.7 | ||||
| 2008-01-01T00:00 | 13670 | 146 | -53.7 | ||||
| 2008-01-01T00:00 | 13689 | 146 | -53.8 | ||||
| 2008-01-01T00:00 | 13694 | 146 | -53.7 | ||||
| 2008-01-01T00:00 | 13696 | 146 | -53.8 | ||||
| 2008-01-01T00:00 | 13715 | 145 | -54.1 | ||||
| 2008-01-01T00:00 | 13731 | 145 | -54.0 | ||||
| 2008-01-01T00:00 | 13736 | 145 | -54.1 | ||||
| 2008-01-01T00:00 | 13751 | 145 | -54.2 | 332 | 21 | ||
| 2008-01-01T00:00 | 13760 | 144 | -54.3 | ||||
| 2008-01-01T00:00 | 13768 | 144 | -54.2 | ||||
| 2008-01-01T00:00 | 13771 | 144 | -54.3 | ||||
| 2008-01-01T00:00 | 13791 | 144 | -54.5 | ||||
| 2008-01-01T00:00 | 13805 | 143 | -54.3 | ||||
| 2008-01-01T00:00 | 13809 | 143 | -54.5 | ||||
| 2008-01-01T00:00 | 13831 | 143 | -54.6 | ||||
| 2008-01-01T00:00 | 13839 | 143 | -54.5 | ||||
| 2008-01-01T00:00 | 13843 | 142 | -54.6 | ||||
| 2008-01-01T00:00 | 13864 | 142 | -54.9 | ||||
| 2008-01-01T00:00 | 13877 | 142 | -54.8 | ||||
| 2008-01-01T00:00 | 13882 | 142 | -55.0 | ||||
| 2008-01-01T00:00 | 13902 | 141 | -55.2 | ||||
| 2008-01-01T00:00 | 13909 | 141 | -55.0 | ||||
| 2008-01-01T00:00 | 13913 | 141 | -55.2 | ||||
| 2008-01-01T00:00 | 13932 | 141 | -55.4 | ||||
| 2008-01-01T00:00 | 13945 | 140 | -55.2 | ||||
| 2008-01-01T00:00 | 13949 | 140 | -55.3 | ||||
| 2008-01-01T00:00 | 13973 | 140 | -55.6 | ||||
| 2008-01-01T00:00 | 13984 | 139 | -55.4 | ||||
| 2008-01-01T00:00 | 13990 | 139 | -55.5 | ||||
| 2008-01-01T00:00 | 14010 | 139 | -55.6 | 343 | 17 | ||
| 2008-01-01T00:00 | 14015 | 139 | -55.7 | ||||
| 2008-01-01T00:00 | 14027 | 138 | -55.5 | ||||
| 2008-01-01T00:00 | 14031 | 138 | -55.6 | ||||
| 2008-01-01T00:00 | 14050 | 138 | -55.8 | ||||
| 2008-01-01T00:00 | 14057 | 138 | -55.7 | ||||
| 2008-01-01T00:00 | 14061 | 138 | -55.8 | ||||
| 2008-01-01T00:00 | 14079 | 137 | -55.9 | ||||
| 2008-01-01T00:00 | 14092 | 137 | -55.7 | ||||
| 2008-01-01T00:00 | 14096 | 137 | -55.8 | ||||
| 2008-01-01T00:00 | 14118 | 136 | -56.0 | ||||
| 2008-01-01T00:00 | 14126 | 136 | -55.6 | ||||
| 2008-01-01T00:00 | 14130 | 136 | -55.7 | ||||
| 2008-01-01T00:00 | 14151 | 136 | -55.9 | ||||
| 2008-01-01T00:00 | 14163 | 136 | -55.6 | ||||
| 2008-01-01T00:00 | 14167 | 135 | -55.8 | ||||
| 2008-01-01T00:00 | 14190 | 135 | -55.7 | ||||
| 2008-01-01T00:00 | 14201 | 135 | -55.5 | ||||
| 2008-01-01T00:00 | 14206 | 135 | -55.6 | ||||
| 2008-01-01T00:00 | 14228 | 134 | -55.8 | ||||
| 2008-01-01T00:00 | 14237 | 134 | -55.6 | ||||
| 2008-01-01T00:00 | 14240 | 134 | -55.7 | ||||
| 2008-01-01T00:00 | 14256 | 134 | -55.8 | 335 | 16 | ||
| 2008-01-01T00:00 | 14260 | 133 | -55.8 | ||||
| 2008-01-01T00:00 | 14272 | 133 | -55.6 | ||||
| 2008-01-01T00:00 | 14277 | 133 | -55.8 | ||||
| 2008-01-01T00:00 | 14303 | 133 | -56.0 | ||||
| 2008-01-01T00:00 | 14316 | 132 | -55.8 | ||||
| 2008-01-01T00:00 | 14320 | 132 | -56.0 | ||||
| 2008-01-01T00:00 | 14346 | 132 | -56.4 | ||||
| 2008-01-01T00:00 | 14360 | 131 | -56.3 | ||||
| 2008-01-01T00:00 | 14367 | 131 | -56.4 | ||||
| 2008-01-01T00:00 | 14396 | 131 | -56.8 | ||||
| 2008-01-01T00:00 | 14410 | 130 | -56.7 | ||||
| 2008-01-01T00:00 | 14414 | 130 | -56.8 | ||||
| 2008-01-01T00:00 | 14437 | 130 | -57.2 | ||||
| 2008-01-01T00:00 | 14446 | 130 | -57.0 | ||||
| 2008-01-01T00:00 | 14450 | 130 | -57.1 | ||||
| 2008-01-01T00:00 | 14472 | 129 | -57.3 | ||||
| 2008-01-01T00:00 | 14485 | 129 | -57.2 | ||||
| 2008-01-01T00:00 | 14490 | 129 | -57.4 | ||||
| 2008-01-01T00:00 | 14511 | 128 | -57.6 | ||||
| 2008-01-01T00:00 | 14520 | 128 | -57.5 | ||||
| 2008-01-01T00:00 | 14528 | 128 | -57.6 | ||||
| 2008-01-01T00:00 | 14545 | 128 | -57.8 | 335 | 13 | ||
| 2008-01-01T00:00 | 14549 | 128 | -57.9 | ||||
| 2008-01-01T00:00 | 14557 | 127 | -57.8 | ||||
| 2008-01-01T00:00 | 14562 | 127 | -57.9 | ||||
| 2008-01-01T00:00 | 14582 | 127 | -58.2 | ||||
| 2008-01-01T00:00 | 14590 | 127 | -58.0 | ||||
| 2008-01-01T00:00 | 14598 | 127 | -58.2 | ||||
| 2008-01-01T00:00 | 14616 | 126 | -58.2 | ||||
| 2008-01-01T00:00 | 14621 | 126 | -58.0 | ||||
| 2008-01-01T00:00 | 14624 | 126 | -58.1 | ||||
| 2008-01-01T00:00 | 14643 | 126 | -58.1 | ||||
| 2008-01-01T00:00 | 14654 | 125 | -58.0 | ||||
| 2008-01-01T00:00 | 14665 | 125 | -58.1 | ||||
| 2008-01-01T00:00 | 14689 | 125 | -58.3 | ||||
| 2008-01-01T00:00 | 14696 | 125 | -58.1 | ||||
| 2008-01-01T00:00 | 14700 | 124 | -58.1 | ||||
| 2008-01-01T00:00 | 14715 | 124 | -58.3 | ||||
| 2008-01-01T00:00 | 14723 | 124 | -58.1 | ||||
| 2008-01-01T00:00 | 14725 | 124 | -58.2 | ||||
| 2008-01-01T00:00 | 14745 | 124 | -58.3 | ||||
| 2008-01-01T00:00 | 14757 | 123 | -58.2 | ||||
| 2008-01-01T00:00 | 14763 | 123 | -58.3 | ||||
| 2008-01-01T00:00 | 14790 | 123 | -58.6 | 327 | 13 | ||
| 2008-01-01T00:00 | 14803 | 122 | -58.4 | ||||
| 2008-01-01T00:00 | 14807 | 122 | -58.5 | ||||
| 2008-01-01T00:00 | 14827 | 122 | -58.6 | ||||
| 2008-01-01T00:00 | 14834 | 122 | -58.5 | ||||
| 2008-01-01T00:00 | 14838 | 122 | -58.6 | ||||
| 2008-01-01T00:00 | 14855 | 121 | -58.9 | ||||
| 2008-01-01T00:00 | 14865 | 121 | -58.8 | ||||
| 2008-01-01T00:00 | 14869 | 121 | -58.8 | ||||
| 2008-01-01T00:00 | 14887 | 121 | -58.9 | ||||
| 2008-01-01T00:00 | 14894 | 121 | -58.7 | ||||
| 2008-01-01T00:00 | 14898 | 121 | -58.7 | ||||
| 2008-01-01T00:00 | 14919 | 120 | -58.9 | ||||
| 2008-01-01T00:00 | 14932 | 120 | -58.8 | ||||
| 2008-01-01T00:00 | 14937 | 120 | -58.9 | ||||
| 2008-01-01T00:00 | 14960 | 119 | -59.0 | ||||
| 2008-01-01T00:00 | 14971 | 119 | -58.9 | ||||
| 2008-01-01T00:00 | 14976 | 119 | -58.9 | ||||
| 2008-01-01T00:00 | 14998 | 119 | -59.1 | ||||
| 2008-01-01T00:00 | 15008 | 119 | -59.0 | ||||
| 2008-01-01T00:00 | 15011 | 118 | -59.0 | ||||
| 2008-01-01T00:00 | 15030 | 118 | -59.0 | 329 | 15 | ||
| 2008-01-01T00:00 | 15037 | 118 | -58.6 | ||||
| 2008-01-01T00:00 | 15041 | 118 | -58.1 | ||||
| 2008-01-01T00:00 | 15060 | 118 | -57.7 | ||||
| 2008-01-01T00:00 | 15072 | 117 | -56.9 | ||||
| 2008-01-01T00:00 | 15075 | 117 | -57.0 | ||||
| 2008-01-01T00:00 | 15094 | 117 | -57.2 | ||||
| 2008-01-01T00:00 | 15102 | 117 | -57.0 | ||||
| 2008-01-01T00:00 | 15106 | 117 | -57.0 | ||||
| 2008-01-01T00:00 | 15126 | 116 | -56.9 | ||||
| 2008-01-01T00:00 | 15138 | 116 | -56.5 | ||||
| 2008-01-01T00:00 | 15142 | 116 | -56.6 | ||||
| 2008-01-01T00:00 | 15166 | 116 | -56.4 | ||||
| 2008-01-01T00:00 | 15178 | 115 | -56.1 | ||||
| 2008-01-01T00:00 | 15184 | 115 | -56.2 | ||||
| 2008-01-01T00:00 | 15209 | 115 | -56.4 | ||||
| 2008-01-01T00:00 | 15221 | 115 | -56.0 | ||||
| 2008-01-01T00:00 | 15225 | 115 | -56.1 | ||||
| 2008-01-01T00:00 | 15246 | 114 | -56.0 | ||||
| 2008-01-01T00:00 | 15256 | 114 | -55.7 | ||||
| 2008-01-01T00:00 | 15261 | 114 | -55.7 | ||||
| 2008-01-01T00:00 | 15284 | 113 | -55.7 | ||||
| 2008-01-01T00:00 | 15288 | 113 | -55.6 | 341 | 16 | ||
| 2008-01-01T00:00 | 15293 | 113 | -55.5 | ||||
| 2008-01-01T00:00 | 15297 | 113 | -55.4 | ||||
| 2008-01-01T00:00 | 15324 | 113 | -55.7 | ||||
| 2008-01-01T00:00 | 15333 | 113 | -55.5 | ||||
| 2008-01-01T00:00 | 15337 | 113 | -55.6 | ||||
| 2008-01-01T00:00 | 15361 | 112 | -55.9 | ||||
| 2008-01-01T00:00 | 15372 | 112 | -55.7 | ||||
| 2008-01-01T00:00 | 15378 | 112 | -55.8 | ||||
| 2008-01-01T00:00 | 15403 | 111 | -56.0 | ||||
| 2008-01-01T00:00 | 15415 | 111 | -55.9 | ||||
| 2008-01-01T00:00 | 15419 | 111 | -55.9 | ||||
| 2008-01-01T00:00 | 15441 | 111 | -56.2 | ||||
| 2008-01-01T00:00 | 15451 | 111 | -56.0 | ||||
| 2008-01-01T00:00 | 15456 | 110 | -56.2 | ||||
| 2008-01-01T00:00 | 15479 | 110 | -56.5 | ||||
| 2008-01-01T00:00 | 15487 | 110 | -56.4 | ||||
| 2008-01-01T00:00 | 15495 | 110 | -56.5 | ||||
| 2008-01-01T00:00 | 15517 | 109 | -56.8 | ||||
| 2008-01-01T00:00 | 15528 | 109 | -56.6 | ||||
| 2008-01-01T00:00 | 15533 | 109 | -56.7 | ||||
| 2008-01-01T00:00 | 15563 | 109 | -57.0 | ||||
| 2008-01-01T00:00 | 15577 | 108 | -56.8 | 354 | 16 | ||
| 2008-01-01T00:00 | 15584 | 108 | -56.9 | ||||
| 2008-01-01T00:00 | 15615 | 108 | -57.2 | ||||
| 2008-01-01T00:00 | 15630 | 107 | -57.0 | ||||
| 2008-01-01T00:00 | 15635 | 107 | -57.1 | ||||
| 2008-01-01T00:00 | 15656 | 107 | -57.4 | ||||
| 2008-01-01T00:00 | 15662 | 107 | -57.3 | ||||
| 2008-01-01T00:00 | 15665 | 107 | -57.5 | ||||
| 2008-01-01T00:00 | 15684 | 107 | -57.7 | ||||
| 2008-01-01T00:00 | 15701 | 106 | -57.6 | ||||
| 2008-01-01T00:00 | 15707 | 106 | -57.7 | ||||
| 2008-01-01T00:00 | 15734 | 106 | -58.0 | ||||
| 2008-01-01T00:00 | 15745 | 106 | -57.8 | ||||
| 2008-01-01T00:00 | 15750 | 105 | -57.9 | ||||
| 2008-01-01T00:00 | 15775 | 105 | -58.2 | ||||
| 2008-01-01T00:00 | 15785 | 105 | -58.0 | ||||
| 2008-01-01T00:00 | 15794 | 105 | -58.1 | ||||
| 2008-01-01T00:00 | 15820 | 104 | -58.4 | ||||
| 2008-01-01T00:00 | 15832 | 104 | -58.2 | ||||
| 2008-01-01T00:00 | 15837 | 104 | -58.2 | ||||
| 2008-01-01T00:00 | 15864 | 104 | -58.5 | ||||
| 2008-01-01T00:00 | 15874 | 103 | -58.3 | ||||
| 2008-01-01T00:00 | 15879 | 103 | -58.4 | 1 | 11 | ||
| 2008-01-01T00:00 | 15902 | 103 | -58.8 | ||||
| 2008-01-01T00:00 | 15915 | 103 | -58.6 | ||||
| 2008-01-01T00:00 | 15920 | 103 | -58.7 | ||||
| 2008-01-01T00:00 | 15940 | 102 | -59.0 | ||||
| 2008-01-01T00:00 | 15948 | 102 | -58.8 | ||||
| 2008-01-01T00:00 | 15952 | 102 | -58.9 | ||||
| 2008-01-01T00:00 | 15975 | 102 | -59.0 | ||||
| 2008-01-01T00:00 | 15994 | 101 | -58.9 | ||||
| 2008-01-01T00:00 | 16000 | 101 | -59.0 | ||||
| 2008-01-01T00:00 | 16028 | 101 | -59.1 | ||||
| 2008-01-01T00:00 | 16039 | 101 | -58.5 | ||||
| 2008-01-01T00:00 | 16045 | 101 | -58.5 | ||||
| 2008-01-01T00:00 | 16071 | 100 | -58.7 | ||||
| 2008-01-01T00:00 | 16082 | 100 | -58.6 | ||||
| 2008-01-01T00:00 | 16086 | 100 | -58.5 | ||||
| 2008-01-01T00:00 | 16090 | 100 | -58.7 | ||||
| 2008-01-01T00:00 | 16114 | 100 | -58.9 | ||||
| 2008-01-01T00:00 | 16122 | 99 | -58.8 | ||||
| 2008-01-01T00:00 | 16126 | 99 | -58.9 | ||||
| 2008-01-01T00:00 | 16151 | 99 | -59.2 | ||||
| 2008-01-01T00:00 | 16164 | 99 | -59.1 | ||||
| 2008-01-01T00:00 | 16176 | 99 | -59.2 | 349 | 5 | ||
| 2008-01-01T00:00 | 16206 | 98 | -59.5 | ||||
| 2008-01-01T00:00 | 16216 | 98 | -59.4 | ||||
| 2008-01-01T00:00 | 16221 | 98 | -59.5 | ||||
| 2008-01-01T00:00 | 16250 | 97 | -59.6 | ||||
| 2008-01-01T00:00 | 16265 | 97 | -59.5 | ||||
| 2008-01-01T00:00 | 16272 | 97 | -59.7 | ||||
| 2008-01-01T00:00 | 16304 | 97 | -60.1 | ||||
| 2008-01-01T00:00 | 16321 | 96 | -60.0 | ||||
| 2008-01-01T00:00 | 16326 | 96 | -60.1 | ||||
| 2008-01-01T00:00 | 16352 | 96 | -60.5 | ||||
| 2008-01-01T00:00 | 16362 | 96 | -60.4 | ||||
| 2008-01-01T00:00 | 16367 | 96 | -60.5 | ||||
| 2008-01-01T00:00 | 16388 | 95 | -60.8 | ||||
| 2008-01-01T00:00 | 16400 | 95 | -60.7 | ||||
| 2008-01-01T00:00 | 16403 | 95 | -60.8 | ||||
| 2008-01-01T00:00 | 16425 | 95 | -61.1 | ||||
| 2008-01-01T00:00 | 16436 | 94 | -61.0 | ||||
| 2008-01-01T00:00 | 16441 | 94 | -61.1 | ||||
| 2008-01-01T00:00 | 16464 | 94 | -61.5 | ||||
| 2008-01-01T00:00 | 16475 | 94 | -61.3 | ||||
| 2008-01-01T00:00 | 16478 | 94 | -61.5 | ||||
| 2008-01-01T00:00 | 16482 | 94 | -61.5 | 316 | 4 | ||
| 2008-01-01T00:00 | 16500 | 94 | -61.8 | ||||
| 2008-01-01T00:00 | 16510 | 93 | -61.7 | ||||
| 2008-01-01T00:00 | 16516 | 93 | -61.8 | ||||
| 2008-01-01T00:00 | 16542 | 93 | -62.2 | ||||
| 2008-01-01T00:00 | 16552 | 93 | -62.0 | ||||
| 2008-01-01T00:00 | 16562 | 93 | -61.9 | ||||
| 2008-01-01T00:00 | 16589 | 92 | -62.0 | ||||
| 2008-01-01T00:00 | 16599 | 92 | -61.9 | ||||
| 2008-01-01T00:00 | 16605 | 92 | -62.0 | ||||
| 2008-01-01T00:00 | 16628 | 92 | -62.2 | ||||
| 2008-01-01T00:00 | 16635 | 92 | -62.0 | ||||
| 2008-01-01T00:00 | 16642 | 91 | -62.0 | ||||
| 2008-01-01T00:00 | 16661 | 91 | -62.1 | ||||
| 2008-01-01T00:00 | 16669 | 91 | -61.9 | ||||
| 2008-01-01T00:00 | 16673 | 91 | -62.0 | ||||
| 2008-01-01T00:00 | 16693 | 91 | -62.2 | ||||
| 2008-01-01T00:00 | 16702 | 91 | -62.0 | ||||
| 2008-01-01T00:00 | 16706 | 90 | -62.1 | ||||
| 2008-01-01T00:00 | 16732 | 90 | -62.2 | ||||
| 2008-01-01T00:00 | 16742 | 90 | -61.8 | ||||
| 2008-01-01T00:00 | 16746 | 90 | -62.0 | ||||
| 2008-01-01T00:00 | 16756 | 90 | -62.0 | 325 | 6 | ||
| 2008-01-01T00:00 | 16771 | 90 | -62.2 | ||||
| 2008-01-01T00:00 | 16781 | 89 | -61.9 | ||||
| 2008-01-01T00:00 | 16786 | 89 | -61.8 | ||||
| 2008-01-01T00:00 | 16808 | 89 | -62.1 | ||||
| 2008-01-01T00:00 | 16819 | 89 | -61.8 | ||||
| 2008-01-01T00:00 | 16822 | 89 | -61.8 | ||||
| 2008-01-01T00:00 | 16844 | 88 | -62.0 | ||||
| 2008-01-01T00:00 | 16855 | 88 | -61.8 | ||||
| 2008-01-01T00:00 | 16861 | 88 | -61.7 | ||||
| 2008-01-01T00:00 | 16885 | 88 | -61.8 | ||||
| 2008-01-01T00:00 | 16895 | 88 | -61.6 | ||||
| 2008-01-01T00:00 | 16898 | 88 | -61.7 | ||||
| 2008-01-01T00:00 | 16919 | 87 | -61.9 | ||||
| 2008-01-01T00:00 | 16931 | 87 | -61.7 | ||||
| 2008-01-01T00:00 | 16937 | 87 | -61.8 | ||||
| 2008-01-01T00:00 | 16961 | 87 | -61.8 | ||||
| 2008-01-01T00:00 | 16969 | 87 | -61.3 | ||||
| 2008-01-01T00:00 | 16976 | 87 | -61.4 | ||||
| 2008-01-01T00:00 | 16995 | 86 | -61.5 | ||||
| 2008-01-01T00:00 | 17002 | 86 | -61.3 | ||||
| 2008-01-01T00:00 | 17005 | 86 | -61.4 | ||||
| 2008-01-01T00:00 | 17017 | 86 | -61.6 | 328 | 8 | ||
| 2008-01-01T00:00 | 17025 | 86 | -61.7 | ||||
| 2008-01-01T00:00 | 17033 | 86 | -61.5 | ||||
| 2008-01-01T00:00 | 17037 | 86 | -61.6 | ||||
| 2008-01-01T00:00 | 17063 | 85 | -61.6 | ||||
| 2008-01-01T00:00 | 17083 | 85 | -61.2 | ||||
| 2008-01-01T00:00 | 17089 | 85 | -61.2 | ||||
| 2008-01-01T00:00 | 17116 | 85 | -61.4 | ||||
| 2008-01-01T00:00 | 17123 | 85 | -61.2 | ||||
| 2008-01-01T00:00 | 17127 | 85 | -61.2 | ||||
| 2008-01-01T00:00 | 17147 | 84 | -61.0 | ||||
| 2008-01-01T00:00 | 17161 | 84 | -60.6 | ||||
| 2008-01-01T00:00 | 17166 | 84 | -60.7 | ||||
| 2008-01-01T00:00 | 17190 | 84 | -60.5 | ||||
| 2008-01-01T00:00 | 17200 | 84 | -60.1 | ||||
| 2008-01-01T00:00 | 17205 | 83 | -60.2 | ||||
| 2008-01-01T00:00 | 17230 | 83 | -60.2 | ||||
| 2008-01-01T00:00 | 17240 | 83 | -59.8 | ||||
| 2008-01-01T00:00 | 17245 | 83 | -59.9 | ||||
| 2008-01-01T00:00 | 17266 | 83 | -59.9 | ||||
| 2008-01-01T00:00 | 17276 | 83 | -59.6 | ||||
| 2008-01-01T00:00 | 17279 | 82 | -59.7 | ||||
| 2008-01-01T00:00 | 17294 | 82 | -59.7 | 328 | 9 | ||
| 2008-01-01T00:00 | 17298 | 82 | -59.7 | ||||
| 2008-01-01T00:00 | 17307 | 82 | -59.3 | ||||
| 2008-01-01T00:00 | 17312 | 82 | -59.4 | ||||
| 2008-01-01T00:00 | 17338 | 82 | -59.6 | ||||
| 2008-01-01T00:00 | 17350 | 82 | -59.5 | ||||
| 2008-01-01T00:00 | 17355 | 81 | -59.6 | ||||
| 2008-01-01T00:00 | 17385 | 81 | -59.9 | ||||
| 2008-01-01T00:00 | 17392 | 81 | -59.7 | ||||
| 2008-01-01T00:00 | 17395 | 81 | -59.8 | ||||
| 2008-01-01T00:00 | 17412 | 81 | -60.0 | ||||
| 2008-01-01T00:00 | 17419 | 81 | -59.8 | ||||
| 2008-01-01T00:00 | 17423 | 81 | -59.9 | ||||
| 2008-01-01T00:00 | 17445 | 80 | -60.1 | ||||
| 2008-01-01T00:00 | 17458 | 80 | -59.9 | ||||
| 2008-01-01T00:00 | 17470 | 80 | -60.0 | ||||
| 2008-01-01T00:00 | 17499 | 80 | -60.0 | ||||
| 2008-01-01T00:00 | 17510 | 79 | -59.9 | ||||
| 2008-01-01T00:00 | 17515 | 79 | -60.0 | ||||
| 2008-01-01T00:00 | 17534 | 79 | -60.3 | ||||
| 2008-01-01T00:00 | 17536 | 79 | -60.2 | ||||
| 2008-01-01T00:00 | 17537 | 79 | -60.3 | ||||
| 2008-01-01T00:00 | 17552 | 79 | -60.2 | ||||
| 2008-01-01T00:00 | 17557 | 79 | -60.0 | 338 | 7 | ||
| 2008-01-01T00:00 | 17562 | 79 | -59.8 | ||||
| 2008-01-01T00:00 | 17573 | 79 | -59.5 | ||||
| 2008-01-01T00:00 | 17599 | 78 | -59.0 | ||||
| 2008-01-01T00:00 | 17609 | 78 | -58.3 | ||||
| 2008-01-01T00:00 | 17614 | 78 | -58.5 | ||||
| 2008-01-01T00:00 | 17636 | 78 | -58.3 | ||||
| 2008-01-01T00:00 | 17644 | 78 | -58.0 | ||||
| 2008-01-01T00:00 | 17648 | 78 | -57.9 | ||||
| 2008-01-01T00:00 | 17666 | 78 | -57.9 | ||||
| 2008-01-01T00:00 | 17673 | 77 | -57.4 | ||||
| 2008-01-01T00:00 | 17680 | 77 | -57.5 | ||||
| 2008-01-01T00:00 | 17703 | 77 | -57.6 | ||||
| 2008-01-01T00:00 | 17716 | 77 | -57.3 | ||||
| 2008-01-01T00:00 | 17722 | 77 | -57.3 | ||||
| 2008-01-01T00:00 | 17753 | 76 | -57.5 | ||||
| 2008-01-01T00:00 | 17764 | 76 | -57.4 | ||||
| 2008-01-01T00:00 | 17770 | 76 | -57.5 | ||||
| 2008-01-01T00:00 | 17794 | 76 | -57.8 | ||||
| 2008-01-01T00:00 | 17802 | 76 | -57.6 | ||||
| 2008-01-01T00:00 | 17806 | 76 | -57.7 | ||||
| 2008-01-01T00:00 | 17825 | 76 | -58.0 | ||||
| 2008-01-01T00:00 | 17834 | 75 | -57.8 | 12 | 3 | ||
| 2008-01-01T00:00 | 17837 | 75 | -57.9 | ||||
| 2008-01-01T00:00 | 17858 | 75 | -57.8 | ||||
| 2008-01-01T00:00 | 17870 | 75 | -57.4 | ||||
| 2008-01-01T00:00 | 17876 | 75 | -57.5 | ||||
| 2008-01-01T00:00 | 17899 | 75 | -57.6 | ||||
| 2008-01-01T00:00 | 17905 | 75 | -57.4 | ||||
| 2008-01-01T00:00 | 17908 | 75 | -57.5 | ||||
| 2008-01-01T00:00 | 17930 | 74 | -57.7 | ||||
| 2008-01-01T00:00 | 17943 | 74 | -57.5 | ||||
| 2008-01-01T00:00 | 17949 | 74 | -57.6 | ||||
| 2008-01-01T00:00 | 17977 | 74 | -57.8 | ||||
| 2008-01-01T00:00 | 17989 | 74 | -57.6 | ||||
| 2008-01-01T00:00 | 17993 | 74 | -57.6 | ||||
| 2008-01-01T00:00 | 18016 | 73 | -57.9 | ||||
| 2008-01-01T00:00 | 18027 | 73 | -57.7 | ||||
| 2008-01-01T00:00 | 18033 | 73 | -57.7 | ||||
| 2008-01-01T00:00 | 18059 | 73 | -57.9 | ||||
| 2008-01-01T00:00 | 18069 | 73 | -57.7 | ||||
| 2008-01-01T00:00 | 18074 | 73 | -57.8 | ||||
| 2008-01-01T00:00 | 18096 | 72 | -58.0 | ||||
| 2008-01-01T00:00 | 18104 | 72 | -57.8 | ||||
| 2008-01-01T00:00 | 18108 | 72 | -58.0 | ||||
| 2008-01-01T00:00 | 18117 | 72 | -58.1 | 54 | 1 | ||
| 2008-01-01T00:00 | 18131 | 72 | -58.3 | ||||
| 2008-01-01T00:00 | 18147 | 72 | -58.1 | ||||
| 2008-01-01T00:00 | 18152 | 72 | -58.3 | ||||
| 2008-01-01T00:00 | 18176 | 72 | -58.6 | ||||
| 2008-01-01T00:00 | 18184 | 71 | -58.4 | ||||
| 2008-01-01T00:00 | 18188 | 71 | -58.5 | ||||
| 2008-01-01T00:00 | 18209 | 71 | -58.8 | ||||
| 2008-01-01T00:00 | 18219 | 71 | -58.7 | ||||
| 2008-01-01T00:00 | 18224 | 71 | -58.8 | ||||
| 2008-01-01T00:00 | 18245 | 71 | -59.1 | ||||
| 2008-01-01T00:00 | 18251 | 71 | -59.0 | ||||
| 2008-01-01T00:00 | 18256 | 71 | -59.0 | ||||
| 2008-01-01T00:00 | 18274 | 70 | -59.3 | ||||
| 2008-01-01T00:00 | 18284 | 70 | -59.2 | ||||
| 2008-01-01T00:00 | 18288 | 70 | -59.3 | ||||
| 2008-01-01T00:00 | 18309 | 70 | -59.5 | ||||
| 2008-01-01T00:00 | 18315 | 70 | -59.6 | ||||
| 2008-01-01T00:00 | 18327 | 70 | -59.4 | ||||
| 2008-01-01T00:00 | 18334 | 70 | -59.5 | ||||
| 2008-01-01T00:00 | 18362 | 69 | -59.2 | ||||
| 2008-01-01T00:00 | 18372 | 69 | -59.0 | ||||
| 2008-01-01T00:00 | 18377 | 69 | -59.0 | ||||
| 2008-01-01T00:00 | 18397 | 69 | -59.1 | 331 | 3 | ||
| 2008-01-01T00:00 | 18402 | 69 | -59.2 | ||||
| 2008-01-01T00:00 | 18417 | 69 | -58.7 | ||||
| 2008-01-01T00:00 | 18422 | 69 | -58.8 | ||||
| 2008-01-01T00:00 | 18444 | 68 | -59.1 | ||||
| 2008-01-01T00:00 | 18451 | 68 | -58.8 | ||||
| 2008-01-01T00:00 | 18454 | 68 | -58.9 | ||||
| 2008-01-01T00:00 | 18468 | 68 | -59.1 | ||||
| 2008-01-01T00:00 | 18471 | 68 | -58.8 | ||||
| 2008-01-01T00:00 | 18473 | 68 | -58.9 | ||||
| 2008-01-01T00:00 | 18492 | 68 | -59.0 | ||||
| 2008-01-01T00:00 | 18506 | 68 | -58.9 | ||||
| 2008-01-01T00:00 | 18513 | 68 | -59.0 | ||||
| 2008-01-01T00:00 | 18542 | 67 | -59.2 | ||||
| 2008-01-01T00:00 | 18553 | 67 | -59.1 | ||||
| 2008-01-01T00:00 | 18556 | 67 | -59.2 | ||||
| 2008-01-01T00:00 | 18579 | 67 | -59.5 | ||||
| 2008-01-01T00:00 | 18591 | 67 | -59.4 | ||||
| 2008-01-01T00:00 | 18597 | 67 | -59.4 | ||||
| 2008-01-01T00:00 | 18623 | 67 | -59.7 | ||||
| 2008-01-01T00:00 | 18630 | 66 | -59.4 | ||||
| 2008-01-01T00:00 | 18634 | 66 | -59.5 | ||||
| 2008-01-01T00:00 | 18655 | 66 | -59.7 | ||||
| 2008-01-01T00:00 | 18659 | 66 | -59.5 | 334 | 6 | ||
| 2008-01-01T00:00 | 18663 | 66 | -59.3 | ||||
| 2008-01-01T00:00 | 18668 | 66 | -59.3 | ||||
| 2008-01-01T00:00 | 18690 | 66 | -59.1 | ||||
| 2008-01-01T00:00 | 18703 | 66 | -58.2 | ||||
| 2008-01-01T00:00 | 18707 | 66 | -58.3 | ||||
| 2008-01-01T00:00 | 18728 | 65 | -58.6 | ||||
| 2008-01-01T00:00 | 18737 | 65 | -58.5 | ||||
| 2008-01-01T00:00 | 18741 | 65 | -58.6 | ||||
| 2008-01-01T00:00 | 18763 | 65 | -58.9 | ||||
| 2008-01-01T00:00 | 18772 | 65 | -58.8 | ||||
| 2008-01-01T00:00 | 18777 | 65 | -58.8 | ||||
| 2008-01-01T00:00 | 18805 | 65 | -59.0 | ||||
| 2008-01-01T00:00 | 18819 | 65 | -58.6 | ||||
| 2008-01-01T00:00 | 18826 | 64 | -58.7 | ||||
| 2008-01-01T00:00 | 18853 | 64 | -58.8 | ||||
| 2008-01-01T00:00 | 18858 | 64 | -58.4 | ||||
| 2008-01-01T00:00 | 18863 | 64 | -58.5 | ||||
| 2008-01-01T00:00 | 18881 | 64 | -58.5 | ||||
| 2008-01-01T00:00 | 18891 | 64 | -58.3 | ||||
| 2008-01-01T00:00 | 18896 | 64 | -58.3 | ||||
| 2008-01-01T00:00 | 18922 | 63 | -58.4 | ||||
| 2008-01-01T00:00 | 18934 | 63 | -57.9 | ||||
| 2008-01-01T00:00 | 18940 | 63 | -58.0 | 347 | 7 | ||
| 2008-01-01T00:00 | 18968 | 63 | -58.0 | ||||
| 2008-01-01T00:00 | 18978 | 63 | -57.9 | ||||
| 2008-01-01T00:00 | 18983 | 63 | -57.7 | ||||
| 2008-01-01T00:00 | 19003 | 63 | -57.8 | ||||
| 2008-01-01T00:00 | 19007 | 63 | -57.5 | ||||
| 2008-01-01T00:00 | 19009 | 63 | -57.6 | ||||
| 2008-01-01T00:00 | 19031 | 62 | -57.9 | ||||
| 2008-01-01T00:00 | 19046 | 62 | -57.7 | ||||
| 2008-01-01T00:00 | 19061 | 62 | -57.8 | ||||
| 2008-01-01T00:00 | 19091 | 62 | -57.9 | ||||
| 2008-01-01T00:00 | 19098 | 62 | -57.6 | ||||
| 2008-01-01T00:00 | 19101 | 62 | -57.7 | ||||
| 2008-01-01T00:00 | 19121 | 62 | -57.9 | ||||
| 2008-01-01T00:00 | 19130 | 61 | -57.6 | ||||
| 2008-01-01T00:00 | 19135 | 61 | -57.7 | ||||
| 2008-01-01T00:00 | 19160 | 61 | -58.0 | ||||
| 2008-01-01T00:00 | 19169 | 61 | -57.8 | ||||
| 2008-01-01T00:00 | 19174 | 61 | -57.9 | ||||
| 2008-01-01T00:00 | 19199 | 61 | -58.2 | ||||
| 2008-01-01T00:00 | 19209 | 61 | -57.9 | ||||
| 2008-01-01T00:00 | 19214 | 61 | -58.1 | ||||
| 2008-01-01T00:00 | 19228 | 60 | -58.1 | 354 | 7 | ||
| 2008-01-01T00:00 | 19237 | 60 | -58.1 | ||||
| 2008-01-01T00:00 | 19244 | 60 | -57.8 | ||||
| 2008-01-01T00:00 | 19248 | 60 | -58.0 | ||||
| 2008-01-01T00:00 | 19270 | 60 | -57.7 | ||||
| 2008-01-01T00:00 | 19286 | 60 | -57.4 | ||||
| 2008-01-01T00:00 | 19291 | 60 | -57.5 | ||||
| 2008-01-01T00:00 | 19318 | 60 | -57.7 | ||||
| 2008-01-01T00:00 | 19329 | 60 | -57.6 | ||||
| 2008-01-01T00:00 | 19335 | 59 | -57.7 | ||||
| 2008-01-01T00:00 | 19361 | 59 | -58.0 | ||||
| 2008-01-01T00:00 | 19372 | 59 | -57.9 | ||||
| 2008-01-01T00:00 | 19377 | 59 | -58.0 | ||||
| 2008-01-01T00:00 | 19403 | 59 | -58.3 | ||||
| 2008-01-01T00:00 | 19413 | 59 | -58.2 | ||||
| 2008-01-01T00:00 | 19418 | 59 | -58.3 | ||||
| 2008-01-01T00:00 | 19440 | 58 | -58.5 | ||||
| 2008-01-01T00:00 | 19447 | 58 | -58.2 | ||||
| 2008-01-01T00:00 | 19450 | 58 | -58.3 | ||||
| 2008-01-01T00:00 | 19468 | 58 | -58.6 | ||||
| 2008-01-01T00:00 | 19478 | 58 | -58.4 | ||||
| 2008-01-01T00:00 | 19487 | 58 | -58.6 | ||||
| 2008-01-01T00:00 | 19508 | 58 | -58.9 | ||||
| 2008-01-01T00:00 | 19515 | 58 | -58.9 | 343 | 6 | ||
| 2008-01-01T00:00 | 19529 | 58 | -58.8 | ||||
| 2008-01-01T00:00 | 19536 | 58 | -58.9 | ||||
| 2008-01-01T00:00 | 19568 | 57 | -59.2 | ||||
| 2008-01-01T00:00 | 19577 | 57 | -59.1 | ||||
| 2008-01-01T00:00 | 19582 | 57 | -59.2 | ||||
| 2008-01-01T00:00 | 19606 | 57 | -59.4 | ||||
| 2008-01-01T00:00 | 19616 | 57 | -59.2 | ||||
| 2008-01-01T00:00 | 19620 | 57 | -59.3 | ||||
| 2008-01-01T00:00 | 19648 | 57 | -59.7 | ||||
| 2008-01-01T00:00 | 19662 | 56 | -59.6 | ||||
| 2008-01-01T00:00 | 19669 | 56 | -59.7 | ||||
| 2008-01-01T00:00 | 19698 | 56 | -59.9 | ||||
| 2008-01-01T00:00 | 19707 | 56 | -59.6 | ||||
| 2008-01-01T00:00 | 19711 | 56 | -59.8 | ||||
| 2008-01-01T00:00 | 19734 | 56 | -60.0 | ||||
| 2008-01-01T00:00 | 19750 | 56 | -59.8 | ||||
| 2008-01-01T00:00 | 19755 | 56 | -59.7 | ||||
| 2008-01-01T00:00 | 19781 | 55 | -59.9 | ||||
| 2008-01-01T00:00 | 19790 | 55 | -59.7 | ||||
| 2008-01-01T00:00 | 19794 | 55 | -59.8 | ||||
| 2008-01-01T00:00 | 19816 | 55 | -59.8 | ||||
| 2008-01-01T00:00 | 19825 | 55 | -59.5 | ||||
| 2008-01-01T00:00 | 19829 | 55 | -59.6 | 342 | 6 | ||
| 2008-01-01T00:00 | 19855 | 55 | -59.5 | ||||
| 2008-01-01T00:00 | 19868 | 55 | -59.3 | ||||
| 2008-01-01T00:00 | 19874 | 55 | -59.4 | ||||
| 2008-01-01T00:00 | 19907 | 54 | -59.3 | ||||
| 2008-01-01T00:00 | 19920 | 54 | -59.1 | ||||
| 2008-01-01T00:00 | 19927 | 54 | -59.2 | ||||
| 2008-01-01T00:00 | 19955 | 54 | -59.3 | ||||
| 2008-01-01T00:00 | 19964 | 54 | -59.1 | ||||
| 2008-01-01T00:00 | 19969 | 54 | -59.2 | ||||
| 2008-01-01T00:00 | 19991 | 54 | -59.5 | ||||
| 2008-01-01T00:00 | 20005 | 53 | -59.3 | ||||
| 2008-01-01T00:00 | 20010 | 53 | -59.4 | ||||
| 2008-01-01T00:00 | 20035 | 53 | -59.7 | ||||
| 2008-01-01T00:00 | 20046 | 53 | -59.6 | ||||
| 2008-01-01T00:00 | 20051 | 53 | -59.8 | ||||
| 2008-01-01T00:00 | 20073 | 53 | -60.1 | ||||
| 2008-01-01T00:00 | 20079 | 53 | -60.0 | ||||
| 2008-01-01T00:00 | 20082 | 53 | -60.1 | ||||
| 2008-01-01T00:00 | 20102 | 53 | -60.5 | ||||
| 2008-01-01T00:00 | 20113 | 52 | -60.3 | ||||
| 2008-01-01T00:00 | 20119 | 52 | -60.4 | ||||
| 2008-01-01T00:00 | 20136 | 52 | -60.6 | 357 | 5 | ||
| 2008-01-01T00:00 | 20148 | 52 | -60.8 | ||||
| 2008-01-01T00:00 | 20160 | 52 | -60.6 | ||||
| 2008-01-01T00:00 | 20166 | 52 | -60.7 | ||||
| 2008-01-01T00:00 | 20194 | 52 | -60.9 | ||||
| 2008-01-01T00:00 | 20203 | 52 | -60.5 | ||||
| 2008-01-01T00:00 | 20212 | 52 | -60.5 | ||||
| 2008-01-01T00:00 | 20236 | 51 | -60.7 | ||||
| 2008-01-01T00:00 | 20246 | 51 | -60.4 | ||||
| 2008-01-01T00:00 | 20251 | 51 | -60.5 | ||||
| 2008-01-01T00:00 | 20272 | 51 | -60.7 | ||||
| 2008-01-01T00:00 | 20279 | 51 | -60.5 | ||||
| 2008-01-01T00:00 | 20282 | 51 | -60.6 | ||||
| 2008-01-01T00:00 | 20304 | 51 | -60.8 | ||||
| 2008-01-01T00:00 | 20316 | 51 | -60.6 | ||||
| 2008-01-01T00:00 | 20322 | 51 | -60.7 | ||||
| 2008-01-01T00:00 | 20347 | 51 | -61.0 | ||||
| 2008-01-01T00:00 | 20354 | 50 | -60.8 | ||||
| 2008-01-01T00:00 | 20358 | 50 | -60.9 | ||||
| 2008-01-01T00:00 | 20380 | 50 | -61.2 | ||||
| 2008-01-01T00:00 | 20393 | 50 | -61.0 | ||||
| 2008-01-01T00:00 | 20399 | 50 | -61.1 | ||||
| 2008-01-01T00:00 | 20417 | 50 | -61.3 | ||||
| 2008-01-01T00:00 | 20423 | 50 | -61.4 | ||||
| 2008-01-01T00:00 | 20426 | 50 | -61.3 | 352 | 2 | ||
| 2008-01-01T00:00 | 20429 | 50 | -61.2 | ||||
| 2008-01-01T00:00 | 20436 | 50 | -61.3 | ||||
| 2008-01-01T00:00 | 20449 | 50 | -61.6 | ||||
| 2008-01-01T00:00 | 20452 | 50 | -61.4 | ||||
| 2008-01-01T00:00 | 20454 | 50 | -61.4 | ||||
| 2008-01-01T00:00 | 20470 | 50 | -61.6 | ||||
| 2008-01-01T00:00 | 20481 | 49 | -61.4 | ||||
| 2008-01-01T00:00 | 20486 | 49 | -61.4 | ||||
| 2008-01-01T00:00 | 20519 | 49 | -61.7 | ||||
| 2008-01-01T00:00 | 20535 | 49 | -61.5 | ||||
| 2008-01-01T00:00 | 20543 | 49 | -61.6 | ||||
| 2008-01-01T00:00 | 20579 | 49 | -61.8 | ||||
| 2008-01-01T00:00 | 20591 | 49 | -61.6 | ||||
| 2008-01-01T00:00 | 20597 | 49 | -61.7 | ||||
| 2008-01-01T00:00 | 20624 | 48 | -61.6 | ||||
| 2008-01-01T00:00 | 20632 | 48 | -61.2 | ||||
| 2008-01-01T00:00 | 20636 | 48 | -61.2 | ||||
| 2008-01-01T00:00 | 20661 | 48 | -61.4 | ||||
| 2008-01-01T00:00 | 20674 | 48 | -61.2 | ||||
| 2008-01-01T00:00 | 20686 | 48 | -61.3 | ||||
| 2008-01-01T00:00 | 20712 | 48 | -61.6 | ||||
| 2008-01-01T00:00 | 20719 | 48 | -61.5 | ||||
| 2008-01-01T00:00 | 20722 | 48 | -61.5 | 293 | 0 | ||
| 2008-01-01T00:00 | 20744 | 47 | -61.9 | ||||
| 2008-01-01T00:00 | 20755 | 47 | -61.7 | ||||
| 2008-01-01T00:00 | 20761 | 47 | -61.9 | ||||
| 2008-01-01T00:00 | 20785 | 47 | -62.2 | ||||
| 2008-01-01T00:00 | 20793 | 47 | -62.1 | ||||
| 2008-01-01T00:00 | 20796 | 47 | -62.3 | ||||
| 2008-01-01T00:00 | 20821 | 47 | -62.5 | ||||
| 2008-01-01T00:00 | 20835 | 47 | -62.4 | ||||
| 2008-01-01T00:00 | 20842 | 47 | -62.5 | ||||
| 2008-01-01T00:00 | 20867 | 46 | -62.7 | ||||
| 2008-01-01T00:00 | 20872 | 46 | -62.2 | ||||
| 2008-01-01T00:00 | 20875 | 46 | -62.3 | ||||
| 2008-01-01T00:00 | 20893 | 46 | -62.1 | ||||
| 2008-01-01T00:00 | 20902 | 46 | -61.6 | ||||
| 2008-01-01T00:00 | 20912 | 46 | -61.7 | ||||
| 2008-01-01T00:00 | 20945 | 46 | -61.9 | ||||
| 2008-01-01T00:00 | 20964 | 46 | -61.6 | ||||
| 2008-01-01T00:00 | 20973 | 46 | -61.6 | ||||
| 2008-01-01T00:00 | 21008 | 45 | -61.2 | ||||
| 2008-01-01T00:00 | 21014 | 45 | -60.6 | ||||
| 2008-01-01T00:00 | 21017 | 45 | -60.8 | ||||
| 2008-01-01T00:00 | 21026 | 45 | -60.8 | 246 | 1 | ||
| 2008-01-01T00:00 | 21032 | 45 | -60.8 | ||||
| 2008-01-01T00:00 | 21038 | 45 | -60.6 | ||||
| 2008-01-01T00:00 | 21041 | 45 | -60.7 | ||||
| 2008-01-01T00:00 | 21068 | 45 | -60.6 | ||||
| 2008-01-01T00:00 | 21086 | 45 | -60.1 | ||||
| 2008-01-01T00:00 | 21095 | 45 | -60.2 | ||||
| 2008-01-01T00:00 | 21133 | 45 | -60.4 | ||||
| 2008-01-01T00:00 | 21144 | 44 | -60.1 | ||||
| 2008-01-01T00:00 | 21150 | 44 | -60.1 | ||||
| 2008-01-01T00:00 | 21178 | 44 | -60.2 | ||||
| 2008-01-01T00:00 | 21189 | 44 | -60.0 | ||||
| 2008-01-01T00:00 | 21195 | 44 | -60.1 | ||||
| 2008-01-01T00:00 | 21221 | 44 | -60.2 | ||||
| 2008-01-01T00:00 | 21231 | 44 | -59.9 | ||||
| 2008-01-01T00:00 | 21236 | 44 | -60.0 | ||||
| 2008-01-01T00:00 | 21253 | 44 | -60.3 | ||||
| 2008-01-01T00:00 | 21257 | 44 | -60.2 | ||||
| 2008-01-01T00:00 | 21260 | 44 | -60.3 | ||||
| 2008-01-01T00:00 | 21276 | 44 | -60.5 | ||||
| 2008-01-01T00:00 | 21308 | 43 | -60.4 | ||||
| 2008-01-01T00:00 | 21319 | 43 | -60.5 | ||||
| 2008-01-01T00:00 | 21361 | 43 | -60.8 | ||||
| 2008-01-01T00:00 | 21365 | 43 | -60.7 | 263 | 3 | ||
| 2008-01-01T00:00 | 21370 | 43 | -60.6 | ||||
| 2008-01-01T00:00 | 21374 | 43 | -60.8 | ||||
| 2008-01-01T00:00 | 21397 | 43 | -61.1 | ||||
| 2008-01-01T00:00 | 21407 | 43 | -60.9 | ||||
| 2008-01-01T00:00 | 21413 | 43 | -61.0 | ||||
| 2008-01-01T00:00 | 21436 | 42 | -61.4 | ||||
| 2008-01-01T00:00 | 21445 | 42 | -61.1 | ||||
| 2008-01-01T00:00 | 21449 | 42 | -61.2 | ||||
| 2008-01-01T00:00 | 21468 | 42 | -61.1 | ||||
| 2008-01-01T00:00 | 21475 | 42 | -61.0 | ||||
| 2008-01-01T00:00 | 21478 | 42 | -61.0 | ||||
| 2008-01-01T00:00 | 21507 | 42 | -61.3 | ||||
| 2008-01-01T00:00 | 21525 | 42 | -61.1 | ||||
| 2008-01-01T00:00 | 21534 | 42 | -61.2 | ||||
| 2008-01-01T00:00 | 21572 | 42 | -61.5 | ||||
| 2008-01-01T00:00 | 21582 | 41 | -61.3 | ||||
| 2008-01-01T00:00 | 21587 | 41 | -61.4 | ||||
| 2008-01-01T00:00 | 21613 | 41 | -61.6 | ||||
| 2008-01-01T00:00 | 21623 | 41 | -61.5 | ||||
| 2008-01-01T00:00 | 21628 | 41 | -61.5 | ||||
| 2008-01-01T00:00 | 21645 | 41 | -61.5 | ||||
| 2008-01-01T00:00 | 21648 | 41 | -61.0 | ||||
| 2008-01-01T00:00 | 21649 | 41 | -61.1 | ||||
| 2008-01-01T00:00 | 21656 | 41 | -61.2 | 280 | 2 | ||
| 2008-01-01T00:00 | 21667 | 41 | -61.2 | ||||
| 2008-01-01T00:00 | 21681 | 41 | -61.1 | ||||
| 2008-01-01T00:00 | 21696 | 41 | -61.2 | ||||
| 2008-01-01T00:00 | 21725 | 40 | -61.5 | ||||
| 2008-01-01T00:00 | 21746 | 40 | -61.3 | ||||
| 2008-01-01T00:00 | 21753 | 40 | -61.4 | ||||
| 2008-01-01T00:00 | 21788 | 40 | -61.5 | ||||
| 2008-01-01T00:00 | 21802 | 40 | -61.0 | ||||
| 2008-01-01T00:00 | 21808 | 40 | -61.1 | ||||
| 2008-01-01T00:00 | 21834 | 40 | -61.1 | ||||
| 2008-01-01T00:00 | 21840 | 40 | -60.9 | ||||
| 2008-01-01T00:00 | 21843 | 40 | -61.0 | ||||
| 2008-01-01T00:00 | 21863 | 40 | -61.0 | ||||
| 2008-01-01T00:00 | 21874 | 40 | -60.8 | ||||
| 2008-01-01T00:00 | 21880 | 39 | -60.9 | ||||
| 2008-01-01T00:00 | 21907 | 39 | -61.0 | ||||
| 2008-01-01T00:00 | 21916 | 39 | -60.8 | ||||
| 2008-01-01T00:00 | 21921 | 39 | -60.9 | ||||
| 2008-01-01T00:00 | 21943 | 39 | -60.9 | ||||
| 2008-01-01T00:00 | 21951 | 39 | -60.5 | ||||
| 2008-01-01T00:00 | 21955 | 39 | -60.6 | ||||
| 2008-01-01T00:00 | 21979 | 39 | -60.9 | 285 | 1 | ||
| 2008-01-01T00:00 | 21989 | 39 | -60.7 | ||||
| 2008-01-01T00:00 | 21995 | 39 | -60.8 | ||||
| 2008-01-01T00:00 | 22021 | 39 | -61.0 | ||||
| 2008-01-01T00:00 | 22032 | 39 | -60.8 | ||||
| 2008-01-01T00:00 | 22037 | 39 | -60.9 | ||||
| 2008-01-01T00:00 | 22056 | 38 | -60.9 | ||||
| 2008-01-01T00:00 | 22059 | 38 | -60.8 | ||||
| 2008-01-01T00:00 | 22060 | 38 | -60.8 | ||||
| 2008-01-01T00:00 | 22083 | 38 | -60.7 | ||||
| 2008-01-01T00:00 | 22101 | 38 | -60.4 | ||||
| 2008-01-01T00:00 | 22110 | 38 | -60.5 | ||||
| 2008-01-01T00:00 | 22143 | 38 | -60.7 | ||||
| 2008-01-01T00:00 | 22149 | 38 | -60.4 | ||||
| 2008-01-01T00:00 | 22152 | 38 | -60.5 | ||||
| 2008-01-01T00:00 | 22174 | 38 | -60.6 | ||||
| 2008-01-01T00:00 | 22187 | 38 | -60.1 | ||||
| 2008-01-01T00:00 | 22194 | 38 | -60.2 | ||||
| 2008-01-01T00:00 | 22215 | 37 | -60.1 | ||||
| 2008-01-01T00:00 | 22217 | 37 | -59.7 | ||||
| 2008-01-01T00:00 | 22218 | 37 | -59.8 | ||||
| 2008-01-01T00:00 | 22239 | 37 | -60.0 | ||||
| 2008-01-01T00:00 | 22257 | 37 | -59.6 | ||||
| 2008-01-01T00:00 | 22267 | 37 | -59.5 | ||||
| 2008-01-01T00:00 | 22273 | 37 | -59.6 | 255 | 1 | ||
| 2008-01-01T00:00 | 22301 | 37 | -59.7 | ||||
| 2008-01-01T00:00 | 22307 | 37 | -59.5 | ||||
| 2008-01-01T00:00 | 22310 | 37 | -59.6 | ||||
| 2008-01-01T00:00 | 22328 | 37 | -59.7 | ||||
| 2008-01-01T00:00 | 22336 | 37 | -59.5 | ||||
| 2008-01-01T00:00 | 22340 | 37 | -59.5 | ||||
| 2008-01-01T00:00 | 22368 | 37 | -59.6 | ||||
| 2008-01-01T00:00 | 22385 | 36 | -59.2 | ||||
| 2008-01-01T00:00 | 22393 | 36 | -58.8 | ||||
| 2008-01-01T00:00 | 22420 | 36 | -59.1 | ||||
| 2008-01-01T00:00 | 22422 | 36 | -58.8 | ||||
| 2008-01-01T00:00 | 22423 | 36 | -58.9 | ||||
| 2008-01-01T00:00 | 22442 | 36 | -59.1 | ||||
| 2008-01-01T00:00 | 22457 | 36 | -58.8 | ||||
| 2008-01-01T00:00 | 22465 | 36 | -58.8 | ||||
| 2008-01-01T00:00 | 22492 | 36 | -58.8 | ||||
| 2008-01-01T00:00 | 22496 | 36 | -58.6 | ||||
| 2008-01-01T00:00 | 22498 | 36 | -58.7 | ||||
| 2008-01-01T00:00 | 22522 | 36 | -58.9 | ||||
| 2008-01-01T00:00 | 22541 | 36 | -58.5 | ||||
| 2008-01-01T00:00 | 22550 | 35 | -58.7 | ||||
| 2008-01-01T00:00 | 22575 | 35 | -58.9 | 216 | 2 | ||
| 2008-01-01T00:00 | 22585 | 35 | -58.7 | ||||
| 2008-01-01T00:00 | 22606 | 35 | -58.5 | ||||
| 2008-01-01T00:00 | 22616 | 35 | -58.7 | ||||
| 2008-01-01T00:00 | 22649 | 35 | -59.0 | ||||
| 2008-01-01T00:00 | 22650 | 35 | -58.5 | ||||
| 2008-01-01T00:00 | 22651 | 35 | -58.7 | ||||
| 2008-01-01T00:00 | 22672 | 35 | -58.8 | ||||
| 2008-01-01T00:00 | 22690 | 35 | -58.6 | ||||
| 2008-01-01T00:00 | 22699 | 35 | -58.7 | ||||
| 2008-01-01T00:00 | 22739 | 34 | -59.0 | ||||
| 2008-01-01T00:00 | 22752 | 34 | -58.8 | ||||
| 2008-01-01T00:00 | 22758 | 34 | -58.9 | ||||
| 2008-01-01T00:00 | 22777 | 34 | -59.0 | ||||
| 2008-01-01T00:00 | 22790 | 34 | -58.8 | ||||
| 2008-01-01T00:00 | 22805 | 34 | -58.5 | ||||
| 2008-01-01T00:00 | 22812 | 34 | -58.6 | ||||
| 2008-01-01T00:00 | 22841 | 34 | -58.5 | ||||
| 2008-01-01T00:00 | 22848 | 34 | -58.3 | ||||
| 2008-01-01T00:00 | 22851 | 34 | -58.4 | ||||
| 2008-01-01T00:00 | 22857 | 34 | -58.4 | 186 | 3 | ||
| 2008-01-01T00:00 | 22879 | 34 | -58.5 | ||||
| 2008-01-01T00:00 | 22898 | 34 | -58.4 | ||||
| 2008-01-01T00:00 | 22907 | 34 | -58.5 | ||||
| 2008-01-01T00:00 | 22942 | 33 | -58.6 | ||||
| 2008-01-01T00:00 | 22949 | 33 | -58.4 | ||||
| 2008-01-01T00:00 | 22952 | 33 | -58.4 | ||||
| 2008-01-01T00:00 | 22964 | 33 | -58.6 | ||||
| 2008-01-01T00:00 | 22967 | 33 | -58.2 | ||||
| 2008-01-01T00:00 | 22968 | 33 | -58.3 | ||||
| 2008-01-01T00:00 | 22986 | 33 | -58.5 | ||||
| 2008-01-01T00:00 | 23000 | 33 | -58.4 | ||||
| 2008-01-01T00:00 | 23007 | 33 | -58.5 | ||||
| 2008-01-01T00:00 | 23045 | 33 | -58.6 | ||||
| 2008-01-01T00:00 | 23062 | 33 | -58.4 | ||||
| 2008-01-01T00:00 | 23071 | 33 | -58.5 | ||||
| 2008-01-01T00:00 | 23094 | 33 | -58.8 | ||||
| 2008-01-01T00:00 | 23105 | 32 | -58.8 | ||||
| 2008-01-01T00:00 | 23123 | 32 | -58.5 | ||||
| 2008-01-01T00:00 | 23132 | 32 | -58.6 | ||||
| 2008-01-01T00:00 | 23167 | 32 | -58.8 | 180 | 4 | ||
| 2008-01-01T00:00 | 23176 | 32 | -58.6 | ||||
| 2008-01-01T00:00 | 23181 | 32 | -58.5 | ||||
| 2008-01-01T00:00 | 23196 | 32 | -58.6 | ||||
| 2008-01-01T00:00 | 23198 | 32 | -58.4 | ||||
| 2008-01-01T00:00 | 23199 | 32 | -58.6 | ||||
| 2008-01-01T00:00 | 23210 | 32 | -58.6 | ||||
| 2008-01-01T00:00 | 23220 | 32 | -58.4 | ||||
| 2008-01-01T00:00 | 23224 | 32 | -58.5 | ||||
| 2008-01-01T00:00 | 23247 | 32 | -58.8 | ||||
| 2008-01-01T00:00 | 23264 | 32 | -58.5 | ||||
| 2008-01-01T00:00 | 23280 | 32 | -58.7 | ||||
| 2008-01-01T00:00 | 23315 | 31 | -58.9 | ||||
| 2008-01-01T00:00 | 23334 | 31 | -58.8 | ||||
| 2008-01-01T00:00 | 23344 | 31 | -59.0 | ||||
| 2008-01-01T00:00 | 23382 | 31 | -59.2 | ||||
| 2008-01-01T00:00 | 23391 | 31 | -58.9 | ||||
| 2008-01-01T00:00 | 23396 | 31 | -59.0 | ||||
| 2008-01-01T00:00 | 23421 | 31 | -59.3 | ||||
| 2008-01-01T00:00 | 23432 | 31 | -59.1 | ||||
| 2008-01-01T00:00 | 23437 | 31 | -59.2 | ||||
| 2008-01-01T00:00 | 23466 | 31 | -59.5 | ||||
| 2008-01-01T00:00 | 23479 | 31 | -59.4 | ||||
| 2008-01-01T00:00 | 23485 | 31 | -59.5 | ||||
| 2008-01-01T00:00 | 23494 | 31 | -59.5 | 200 | 4 | ||
| 2008-01-01T00:00 | 23508 | 30 | -59.6 | ||||
| 2008-01-01T00:00 | 23511 | 30 | -59.3 | ||||
| 2008-01-01T00:00 | 23513 | 30 | -59.5 | ||||
| 2008-01-01T00:00 | 23534 | 30 | -59.5 | ||||
| 2008-01-01T00:00 | 23551 | 30 | -59.3 | ||||
| 2008-01-01T00:00 | 23559 | 30 | -59.4 | ||||
| 2008-01-01T00:00 | 23586 | 30 | -59.7 | ||||
| 2008-01-01T00:00 | 23589 | 30 | -59.5 | ||||
| 2008-01-01T00:00 | 23590 | 30 | -59.5 | ||||
| 2008-01-01T00:00 | 23601 | 30 | -59.6 | ||||
| 2008-01-01T00:00 | 23614 | 30 | -59.7 | ||||
| 2008-01-01T00:00 | 23634 | 30 | -59.5 | ||||
| 2008-01-01T00:00 | 23643 | 30 | -59.7 | ||||
| 2008-01-01T00:00 | 23676 | 30 | -60.0 | ||||
| 2008-01-01T00:00 | 23679 | 30 | -59.7 | ||||
| 2008-01-01T00:00 | 23680 | 30 | -59.8 | ||||
| 2008-01-01T00:00 | 23702 | 30 | -60.0 | ||||
| 2008-01-01T00:00 | 23719 | 29 | -59.7 | ||||
| 2008-01-01T00:00 | 23728 | 29 | -59.8 | ||||
| 2008-01-01T00:00 | 23764 | 29 | -60.1 | ||||
| 2008-01-01T00:00 | 23774 | 29 | -59.9 | ||||
| 2008-01-01T00:00 | 23780 | 29 | -60.0 | ||||
| 2008-01-01T00:00 | 23795 | 29 | -60.2 | ||||
| 2008-01-01T00:00 | 23797 | 29 | -60.4 | ||||
| 2008-01-01T00:00 | 23803 | 29 | -60.2 | ||||
| 2008-01-01T00:00 | 23806 | 29 | -60.3 | ||||
| 2008-01-01T00:00 | 23826 | 29 | -60.5 | ||||
| 2008-01-01T00:00 | 23837 | 29 | -60.3 | ||||
| 2008-01-01T00:00 | 23842 | 29 | -60.5 | ||||
| 2008-01-01T00:00 | 23865 | 29 | -60.7 | ||||
| 2008-01-01T00:00 | 23879 | 29 | -60.5 | ||||
| 2008-01-01T00:00 | 23892 | 29 | -60.5 | ||||
| 2008-01-01T00:00 | 23916 | 29 | -60.8 | ||||
| 2008-01-01T00:00 | 23923 | 28 | -60.6 | ||||
| 2008-01-01T00:00 | 23930 | 28 | -60.7 | ||||
| 2008-01-01T00:00 | 23952 | 28 | -60.7 | ||||
| 2008-01-01T00:00 | 23974 | 28 | -60.5 | ||||
| 2008-01-01T00:00 | 23985 | 28 | -60.6 | ||||
| 2008-01-01T00:00 | 24024 | 28 | -60.8 | ||||
| 2008-01-01T00:00 | 24030 | 28 | -60.5 | ||||
| 2008-01-01T00:00 | 24033 | 28 | -60.7 | ||||
| 2008-01-01T00:00 | 24049 | 28 | -60.9 | ||||
| 2008-01-01T00:00 | 24056 | 28 | -60.6 | ||||
| 2008-01-01T00:00 | 24059 | 28 | -60.7 | ||||
| 2008-01-01T00:00 | 24076 | 28 | -60.8 | 284 | 7 | ||
| 2008-01-01T00:00 | 24088 | 28 | -60.9 | ||||
| 2008-01-01T00:00 | 24106 | 28 | -60.7 | ||||
| 2008-01-01T00:00 | 24115 | 28 | -60.8 | ||||
| 2008-01-01T00:00 | 24153 | 27 | -61.0 | ||||
| 2008-01-01T00:00 | 24163 | 27 | -60.7 | ||||
| 2008-01-01T00:00 | 24167 | 27 | -60.8 | ||||
| 2008-01-01T00:00 | 24188 | 27 | -60.9 | ||||
| 2008-01-01T00:00 | 24194 | 27 | -60.7 | ||||
| 2008-01-01T00:00 | 24197 | 27 | -60.7 | ||||
| 2008-01-01T00:00 | 24222 | 27 | -60.7 | ||||
| 2008-01-01T00:00 | 24238 | 27 | -60.5 | ||||
| 2008-01-01T00:00 | 24246 | 27 | -60.6 | ||||
| 2008-01-01T00:00 | 24276 | 27 | -60.3 | ||||
| 2008-01-01T00:00 | 24283 | 27 | -60.0 | ||||
| 2008-01-01T00:00 | 24286 | 27 | -60.2 | ||||
| 2008-01-01T00:00 | 24312 | 27 | -60.4 | ||||
| 2008-01-01T00:00 | 24328 | 27 | -60.1 | ||||
| 2008-01-01T00:00 | 24336 | 27 | -60.2 | ||||
| 2008-01-01T00:00 | 24365 | 27 | -60.4 | ||||
| 2008-01-01T00:00 | 24370 | 27 | -60.1 | ||||
| 2008-01-01T00:00 | 24373 | 26 | -60.2 | ||||
| 2008-01-01T00:00 | 24396 | 26 | -60.4 | ||||
| 2008-01-01T00:00 | 24410 | 26 | -60.1 | 308 | 9 | ||
| 2008-01-01T00:00 | 24418 | 26 | -60.3 | ||||
| 2008-01-01T00:00 | 24444 | 26 | -60.6 | ||||
| 2008-01-01T00:00 | 24452 | 26 | -60.4 | ||||
| 2008-01-01T00:00 | 24459 | 26 | -60.4 | ||||
| 2008-01-01T00:00 | 24482 | 26 | -60.6 | ||||
| 2008-01-01T00:00 | 24503 | 26 | -60.2 | ||||
| 2008-01-01T00:00 | 24513 | 26 | -60.2 | ||||
| 2008-01-01T00:00 | 24549 | 26 | -60.5 | ||||
| 2008-01-01T00:00 | 24553 | 26 | -60.2 | ||||
| 2008-01-01T00:00 | 24554 | 26 | -60.3 | ||||
| 2008-01-01T00:00 | 24578 | 26 | -60.5 | ||||
| 2008-01-01T00:00 | 24595 | 26 | -60.2 | ||||
| 2008-01-01T00:00 | 24604 | 26 | -60.3 | ||||
| 2008-01-01T00:00 | 24637 | 25 | -60.5 | ||||
| 2008-01-01T00:00 | 24644 | 25 | -60.3 | ||||
| 2008-01-01T00:00 | 24647 | 25 | -60.3 | ||||
| 2008-01-01T00:00 | 24670 | 25 | -60.5 | ||||
| 2008-01-01T00:00 | 24682 | 25 | -60.3 | ||||
| 2008-01-01T00:00 | 24688 | 25 | -60.4 | ||||
| 2008-01-01T00:00 | 24718 | 25 | -60.7 | ||||
| 2008-01-01T00:00 | 24729 | 25 | -60.5 | ||||
| 2008-01-01T00:00 | 24735 | 25 | -60.7 | ||||
| 2008-01-01T00:00 | 24754 | 25 | -60.8 | 323 | 9 | ||
| 2008-01-01T00:00 | 24759 | 25 | -60.8 | ||||
| 2008-01-01T00:00 | 24767 | 25 | -60.6 | ||||
| 2008-01-01T00:00 | 24770 | 25 | -60.8 | ||||
| 2008-01-01T00:00 | 24791 | 25 | -61.1 | ||||
| 2008-01-01T00:00 | 24800 | 25 | -60.8 | ||||
| 2008-01-01T00:00 | 24805 | 25 | -60.8 | ||||
| 2008-01-01T00:00 | 24818 | 25 | -60.9 | ||||
| 2008-01-01T00:00 | 24822 | 25 | -61.0 | ||||
| 2008-01-01T00:00 | 24837 | 25 | -60.7 | ||||
| 2008-01-01T00:00 | 24845 | 25 | -60.8 | ||||
| 2008-01-01T00:00 | 24883 | 24 | -61.0 | ||||
| 2008-01-01T00:00 | 24900 | 24 | -60.8 | ||||
| 2008-01-01T00:00 | 24908 | 24 | -60.9 | ||||
| 2008-01-01T00:00 | 24946 | 24 | -61.1 | ||||
| 2008-01-01T00:00 | 24958 | 24 | -60.7 | ||||
| 2008-01-01T00:00 | 24964 | 24 | -60.8 | ||||
| 2008-01-01T00:00 | 24994 | 24 | -60.9 | ||||
| 2008-01-01T00:00 | 25006 | 24 | -60.7 | ||||
| 2008-01-01T00:00 | 25012 | 24 | -60.8 | ||||
| 2008-01-01T00:00 | 25042 | 24 | -60.9 | ||||
| 2008-01-01T00:00 | 25055 | 24 | -60.5 | ||||
| 2008-01-01T00:00 | 25062 | 24 | -60.7 | ||||
| 2008-01-01T00:00 | 25068 | 24 | -60.7 | 334 | 8 | ||
| 2008-01-01T00:00 | 25090 | 24 | -60.8 | ||||
| 2008-01-01T00:00 | 25099 | 24 | -60.6 | ||||
| 2008-01-01T00:00 | 25103 | 24 | -60.8 | ||||
| 2008-01-01T00:00 | 25124 | 23 | -61.1 | ||||
| 2008-01-01T00:00 | 25132 | 23 | -60.8 | ||||
| 2008-01-01T00:00 | 25136 | 23 | -61.0 | ||||
| 2008-01-01T00:00 | 25155 | 23 | -61.3 | ||||
| 2008-01-01T00:00 | 25162 | 23 | -61.1 | ||||
| 2008-01-01T00:00 | 25166 | 23 | -61.2 | ||||
| 2008-01-01T00:00 | 25181 | 23 | -61.5 | ||||
| 2008-01-01T00:00 | 25189 | 23 | -61.2 | ||||
| 2008-01-01T00:00 | 25197 | 23 | -61.3 | ||||
| 2008-01-01T00:00 | 25217 | 23 | -61.6 |
Only the first 2000 rows were shown. To view the complete dataset, download it as tab-delimited text. You can still view the full matrix in your browser, but be aware that this may crash the browser due to the huge size.
